Observation data for Hobbs on 03/23/2019      Previous  Date  Next       Current Mesonet Observations  Soil Data  Daily Summary Page  Observations in Plain Language
KHO1 230500Z 22006KT 13/10 A3002 RMK A01 T01250098  RH  084%=      5-min Rain = 0
KHO1 230501Z 23006KT 12/10 A3002 RMK A01 T01240098  RH  084%=      5-min Rain = 0
KHO1 230502Z 23006KT 12/10 A3002 RMK A01 T01240098  RH  084%=      5-min Rain = 0
KHO1 230503Z 23007KT 12/10 A3002 RMK A01 T01240098  RH  084%=      5-min Rain = 0
KHO1 230504Z 23006KT 12/10 A3002 RMK A01 T01230097  RH  084%=      5-min Rain = 0
KHO1 230505Z 22006KT 12/10 A3002 RMK A01 T01220096  RH  085%=      5-min Rain = 0
KHO1 230506Z 21006KT 12/10 A3002 RMK A01 T01210097  RH  085%=      5-min Rain = 0
KHO1 230507Z 21006KT 12/10 A3002 RMK A01 T01210097  RH  085%=      5-min Rain = 0
KHO1 230508Z 20007KT 12/10 A3002 RMK A01 T01200096  RH  085%=      5-min Rain = 0
KHO1 230509Z 20008KT 12/10 A3002 RMK A01 T01200097  RH  086%=      5-min Rain = 0
KHO1 230510Z 20007KT 12/10 A3002 RMK A01 T01210099  RH  086%=      5-min Rain = 0
KHO1 230511Z 20009KT 12/10 A3002 RMK A01 T01220101  RH  087%=      5-min Rain = 0
KHO1 230512Z 20007KT 12/10 A3002 RMK A01 T01230100  RH  086%=      5-min Rain = 0
KHO1 230513Z 19008KT 12/10 A3002 RMK A01 T01230100  RH  086%=      5-min Rain = 0
KHO1 230514Z 19007KT 12/10 A3002 RMK A01 T01230099  RH  085%=      5-min Rain = 0
KHO1 230515Z 19007KT 12/10 A3002 RMK A01 T01220098  RH  085%=      5-min Rain = 0
KHO1 230516Z 20007KT 12/10 A3002 RMK A01 T01210097  RH  085%=      5-min Rain = 0
KHO1 230517Z 19007KT 12/10 A3002 RMK A01 T01200097  RH  085%=      5-min Rain = 0
KHO1 230518Z 20006KT 12/10 A3002 RMK A01 T01200097  RH  086%=      5-min Rain = 0
KHO1 230519Z 20006KT 12/10 A3002 RMK A01 T01190097  RH  086%=      5-min Rain = 0
KHO1 230520Z 20006KT 12/10 A3002 RMK A01 T01190097  RH  087%=      5-min Rain = 0
KHO1 230521Z 20006KT 12/10 A3002 RMK A01 T01190098  RH  087%=      5-min Rain = 0
KHO1 230522Z 20006KT 12/10 A3002 RMK A01 T01190099  RH  087%=      5-min Rain = 0
KHO1 230523Z 21007KT 12/10 A3002 RMK A01 T01200100  RH  087%=      5-min Rain = 0
KHO1 230524Z 21007KT 12/10 A3002 RMK A01 T01200099  RH  087%=      5-min Rain = 0
KHO1 230525Z 21007KT 12/10 A3002 RMK A01 T01210101  RH  088%=      5-min Rain = 0
KHO1 230526Z 20008KT 12/10 A3002 RMK A01 T01210102  RH  088%=      5-min Rain = 0
KHO1 230527Z 20009KT 12/10 A3002 RMK A01 T01220103  RH  088%=      5-min Rain = 0
KHO1 230528Z 20009KT 12/10 A3002 RMK A01 T01240104  RH  088%=      5-min Rain = 0
KHO1 230529Z 20009KT 13/10 A3002 RMK A01 T01250104  RH  087%=      5-min Rain = 0
KHO1 230530Z 19009KT 13/10 A3002 RMK A01 T01260103  RH  086%=      5-min Rain = 0
KHO1 230531Z 19009KT 13/10 A3002 RMK A01 T01260102  RH  085%=      5-min Rain = 0
KHO1 230532Z 19009KT 13/10 A3002 RMK A01 T01260102  RH  085%=      5-min Rain = 0
KHO1 230533Z 19009KT 13/10 A3002 RMK A01 T01250101  RH  085%=      5-min Rain = 0
KHO1 230534Z 19010KT 13/10 A3002 RMK A01 T01250101  RH  085%=      5-min Rain = 0
KHO1 230535Z 19010KT 13/10 A3002 RMK A01 T01250101  RH  085%=      5-min Rain = 0
KHO1 230536Z 19011KT 13/10 A3002 RMK A01 T01250101  RH  085%=      5-min Rain = 0
KHO1 230537Z 19010KT 13/10 A3002 RMK A01 T01250101  RH  085%=      5-min Rain = 0
KHO1 230538Z 18010KT 12/10 A3002 RMK A01 T01240101  RH  085%=      5-min Rain = 0
KHO1 230539Z 18011KT 12/10 A3002 RMK A01 T01240101  RH  086%=      5-min Rain = 0
KHO1 230540Z 18009KT 12/10 A3002 RMK A01 T01240100  RH  085%=      5-min Rain = 0
KHO1 230541Z 19008KT 12/10 A3002 RMK A01 T01240100  RH  086%=      5-min Rain = 0
KHO1 230542Z 19010KT 12/10 A3002 RMK A01 T01230100  RH  086%=      5-min Rain = 0
KHO1 230543Z 19010KT 12/10 A3002 RMK A01 T01240101  RH  086%=      5-min Rain = 0
KHO1 230544Z 19009KT 12/10 A3002 RMK A01 T01240101  RH  086%=      5-min Rain = 0
KHO1 230545Z 20008KT 12/10 A3002 RMK A01 T01230100  RH  086%=      5-min Rain = 0
KHO1 230546Z 20008KT 12/10 A3002 RMK A01 T01230100  RH  086%=      5-min Rain = 0
KHO1 230547Z 20009KT 12/10 A3002 RMK A01 T01220100  RH  086%=      5-min Rain = 0
KHO1 230548Z 21008KT 12/10 A3002 RMK A01 T01220100  RH  086%=      5-min Rain = 0
KHO1 230549Z 22008KT 12/10 A3002 RMK A01 T01220100  RH  087%=      5-min Rain = 0
KHO1 230550Z 22007KT 12/10 A3002 RMK A01 T01210100  RH  087%=      5-min Rain = 0
KHO1 230551Z 22006KT 12/10 A3002 RMK A01 T01210100  RH  087%=      5-min Rain = 0
KHO1 230552Z 21006KT 12/10 A3002 RMK A01 T01200099  RH  087%=      5-min Rain = 0
KHO1 230553Z 21006KT 12/10 A3002 RMK A01 T01200100  RH  087%=      5-min Rain = 0
KHO1 230554Z 21006KT 12/10 A3002 RMK A01 T01190100  RH  088%=      5-min Rain = 0
KHO1 230555Z 21007KT 12/10 A3002 RMK A01 T01190101  RH  089%=      5-min Rain = 0
KHO1 230556Z 21007KT 12/10 A3002 RMK A01 T01190101  RH  089%=      5-min Rain = 0
KHO1 230557Z 21007KT 12/10 A3002 RMK A01 T01180100  RH  089%=      5-min Rain = 0
KHO1 230558Z 21007KT 12/10 A3002 RMK A01 T01180101  RH  090%=      5-min Rain = 0
KHO1 230559Z 21007KT 12/10 A3002 RMK A01 T01180103  RH  091%=      5-min Rain = 0
KHO1 230600Z 21008KT 12/10 A3002 RMK A01 T01170104  RH  091%=      5-min Rain = 0
KHO1 230601Z 20008KT 12/11 A3002 RMK A01 T01170105  RH  092%=      5-min Rain = 0
KHO1 230602Z 20010KT 12/11 A3002 RMK A01 T01180106  RH  093%=      5-min Rain = 0
KHO1 230603Z 20010KT 12/11 A3002 RMK A01 T01190108  RH  093%=      5-min Rain = 0
KHO1 230604Z 20010KT 12/11 A3002 RMK A01 T01200109  RH  093%=      5-min Rain = 0
KHO1 230605Z 20010KT 12/11 A3002 RMK A01 T01200109  RH  093%=      5-min Rain = 0
KHO1 230606Z 20010KT 12/11 A3002 RMK A01 T01210109  RH  093%=      5-min Rain = 0
KHO1 230607Z 20010KT 12/11 A3002 RMK A01 T01200108  RH  092%=      5-min Rain = 0
KHO1 230608Z 20010KT 12/11 A3002 RMK A01 T01200108  RH  092%=      5-min Rain = 0
KHO1 230609Z 21009KT 12/11 A3002 RMK A01 T01200108  RH  092%=      5-min Rain = 0
KHO1 230610Z 21009KT 12/11 A3002 RMK A01 T01200108  RH  092%=      5-min Rain = 0
KHO1 230611Z 21008KT 12/11 A3002 RMK A01 T01200108  RH  092%=      5-min Rain = 0
KHO1 230612Z 22007KT 12/11 A3002 RMK A01 T01190107  RH  092%=      5-min Rain = 0
KHO1 230613Z 22007KT 12/11 A3002 RMK A01 T01190107  RH  092%=      5-min Rain = 0
KHO1 230614Z 22006KT 12/11 A3002 RMK A01 T01180106  RH  092%=      5-min Rain = 0
KHO1 230615Z 23006KT 12/11 A3002 RMK A01 T01180106  RH  092%=      5-min Rain = 0
KHO1 230616Z 22006KT 12/11 A3002 RMK A01 T01180106  RH  093%=      5-min Rain = 0
KHO1 230617Z 23006KT 12/11 A3002 RMK A01 T01170106  RH  093%=      5-min Rain = 0
KHO1 230618Z 23007KT 12/11 A3002 RMK A01 T01170105  RH  093%=      5-min Rain = 0
KHO1 230619Z 24007KT 12/11 A3002 RMK A01 T01160105  RH  093%=      5-min Rain = 0
KHO1 230620Z 24008KT 12/10 A3002 RMK A01 T01150104  RH  093%=      5-min Rain = 0
KHO1 230621Z 23008KT 11/10 A3002 RMK A01 T01130103  RH  093%=      5-min Rain = 0
KHO1 230622Z 22009KT 11/10 A3002 RMK A01 T01130104  RH  094%=      5-min Rain = 0
KHO1 230623Z 20011KT 12/11 A3002 RMK A01 T01150107  RH  095%=      5-min Rain = 0
KHO1 230624Z 20012KT 12/11 A3002 RMK A01 T01160109  RH  095%=      5-min Rain = 0
KHO1 230625Z 19012KT 12/11 A3002 RMK A01 T01180110  RH  095%=      5-min Rain = 0
KHO1 230626Z 20013KT 12/11 A3002 RMK A01 T01200111  RH  094%=      5-min Rain = 0
KHO1 230627Z 20014KT 12/11 A3002 RMK A01 T01210111  RH  094%=      5-min Rain = 0
KHO1 230628Z 20013KT 12/11 A3002 RMK A01 T01220112  RH  093%=      5-min Rain = 0
KHO1 230629Z 20013KT 12/11 A3002 RMK A01 T01220111  RH  093%=      5-min Rain = 0
KHO1 230630Z 20012KT 12/11 A3002 RMK A01 T01220109  RH  092%=      5-min Rain = 0
KHO1 230631Z 20011KT 12/11 A3002 RMK A01 T01210109  RH  092%=      5-min Rain = 0
KHO1 230632Z 20011KT 12/11 A3002 RMK A01 T01200108  RH  092%=      5-min Rain = 0
KHO1 230633Z 20010KT 12/11 A3002 RMK A01 T01200108  RH  093%=      5-min Rain = 0
KHO1 230634Z 20010KT 12/11 A3002 RMK A01 T01190108  RH  093%=      5-min Rain = 0
KHO1 230635Z 20010KT 12/11 A3002 RMK A01 T01190107  RH  093%=      5-min Rain = 0
KHO1 230636Z 20010KT 12/11 A3002 RMK A01 T01180107  RH  093%=      5-min Rain = 0
KHO1 230637Z 20010KT 12/11 A3002 RMK A01 T01180107  RH  093%=      5-min Rain = 0
KHO1 230638Z 20010KT 12/11 A3002 RMK A01 T01170107  RH  093%=      5-min Rain = 0
KHO1 230639Z 20009KT 12/11 A3002 RMK A01 T01170107  RH  094%=      5-min Rain = 0
KHO1 230640Z 19010KT 12/11 A3002 RMK A01 T01160106  RH  094%=      5-min Rain = 0
KHO1 230641Z 20010KT 12/11 A3002 RMK A01 T01150106  RH  094%=      5-min Rain = 0
KHO1 230642Z 20009KT 12/11 A3002 RMK A01 T01150106  RH  094%=      5-min Rain = 0
KHO1 230643Z 20009KT 12/11 A3002 RMK A01 T01150106  RH  094%=      5-min Rain = 0
KHO1 230644Z 20009KT 11/11 A3002 RMK A01 T01140105  RH  094%=      5-min Rain = 0
KHO1 230645Z 20009KT 11/11 A3002 RMK A01 T01140105  RH  094%=      5-min Rain = 0
KHO1 230646Z 20009KT 11/11 A3002 RMK A01 T01130105  RH  095%=      5-min Rain = 0
KHO1 230647Z 20008KT 11/10 A3002 RMK A01 T01130104  RH  095%=      5-min Rain = 0
KHO1 230648Z 20009KT 11/10 A3002 RMK A01 T01120103  RH  095%=      5-min Rain = 0
KHO1 230649Z 20009KT 11/10 A3002 RMK A01 T01120104  RH  095%=      5-min Rain = 0
KHO1 230650Z 20008KT 11/10 A3002 RMK A01 T01110104  RH  095%=      5-min Rain = 0
KHO1 230651Z 20008KT 11/10 A3002 RMK A01 T01110103  RH  095%=      5-min Rain = 0
KHO1 230652Z 20009KT 11/10 A3002 RMK A01 T01110104  RH  096%=      5-min Rain = 0
KHO1 230653Z 20008KT 11/10 A3002 RMK A01 T01100104  RH  096%=      5-min Rain = 0
KHO1 230654Z 19008KT 11/10 A3002 RMK A01 T01100103  RH  096%=      5-min Rain = 0
KHO1 230655Z 19008KT 11/10 A3002 RMK A01 T01100103  RH  096%=      5-min Rain = 0
KHO1 230656Z 19008KT 11/10 A3002 RMK A01 T01100104  RH  096%=      5-min Rain = 0
KHO1 230657Z 19007KT 11/10 A3002 RMK A01 T01090104  RH  096%=      5-min Rain = 0
KHO1 230658Z 19007KT 11/10 A3002 RMK A01 T01090103  RH  096%=      5-min Rain = 0
KHO1 230659Z 19008KT 11/10 A3002 RMK A01 T01090103  RH  096%=      5-min Rain = 0
KHO1 230700Z 20008KT 11/10 A3002 RMK A01 T01090104  RH  097%=      5-min Rain = 0
KHO1 230701Z 19007KT 11/11 A3002 RMK A01 T01100105  RH  097%=      5-min Rain = 0
KHO1 230702Z 19007KT 11/11 A3002 RMK A01 T01090105  RH  097%=      5-min Rain = 0
KHO1 230703Z 19008KT 11/11 A3002 RMK A01 T01090105  RH  097%=      5-min Rain = 0
KHO1 230704Z 19009KT 11/11 A3002 RMK A01 T01100105  RH  097%=      5-min Rain = 0
KHO1 230705Z 19009KT 11/11 A3002 RMK A01 T01100106  RH  097%=      5-min Rain = 0
KHO1 230706Z 20008KT 11/11 A3002 RMK A01 T01110107  RH  097%=      5-min Rain = 0
KHO1 230707Z 20007KT 11/11 A3002 RMK A01 T01110107  RH  097%=      5-min Rain = 0
KHO1 230708Z 20006KT 11/11 A3002 RMK A01 T01110106  RH  097%=      5-min Rain = 0
KHO1 230709Z 21006KT 11/11 A3002 RMK A01 T01110106  RH  097%=      5-min Rain = 0
KHO1 230710Z 21006KT 11/11 A3002 RMK A01 T01110106  RH  097%=      5-min Rain = 0
KHO1 230711Z 21006KT 11/11 A3002 RMK A01 T01110106  RH  097%=      5-min Rain = 0
KHO1 230712Z 21006KT 11/11 A3002 RMK A01 T01110107  RH  097%=      5-min Rain = 0
KHO1 230713Z 21005KT 11/11 A3002 RMK A01 T01100105  RH  097%=      5-min Rain = 0
KHO1 230714Z 21006KT 11/10 A3002 RMK A01 T01090103  RH  096%=      5-min Rain = 0
KHO1 230715Z 21006KT 11/10 A3002 RMK A01 T01090103  RH  096%=      5-min Rain = 0
KHO1 230716Z 21006KT 11/10 A3002 RMK A01 T01080103  RH  096%=      5-min Rain = 0
KHO1 230717Z 21007KT 11/10 A3002 RMK A01 T01080103  RH  097%=      5-min Rain = 0
KHO1 230718Z 20007KT 11/10 A3002 RMK A01 T01080103  RH  097%=      5-min Rain = 0
KHO1 230719Z 20007KT 11/10 A3002 RMK A01 T01080104  RH  097%=      5-min Rain = 0
KHO1 230720Z 20006KT 11/10 A3002 RMK A01 T01080104  RH  097%=      5-min Rain = 0
KHO1 230721Z 20007KT 11/10 A3002 RMK A01 T01070103  RH  097%=      5-min Rain = 0
KHO1 230722Z 20007KT 11/10 A3002 RMK A01 T01070103  RH  097%=      5-min Rain = 0
KHO1 230723Z 20007KT 11/10 A3002 RMK A01 T01070103  RH  097%=      5-min Rain = 0
KHO1 230724Z 21007KT 11/10 A3002 RMK A01 T01060103  RH  097%=      5-min Rain = 0
KHO1 230725Z 21007KT 11/10 A3002 RMK A01 T01070103  RH  098%=      5-min Rain = 0
KHO1 230726Z 20007KT 11/10 A3002 RMK A01 T01070104  RH  098%=      5-min Rain = 0
KHO1 230727Z 20007KT 11/10 A3003 RMK A01 T01060103  RH  098%=      5-min Rain = 0
KHO1 230728Z 21007KT 11/10 A3003 RMK A01 T01060103  RH  098%=      5-min Rain = 0
KHO1 230729Z 21007KT 11/10 A3003 RMK A01 T01060103  RH  098%=      5-min Rain = 0
KHO1 230730Z 21007KT 11/10 A3003 RMK A01 T01060103  RH  098%=      5-min Rain = 0
KHO1 230731Z 21007KT 11/10 A3003 RMK A01 T01070104  RH  098%=      5-min Rain = 0
KHO1 230732Z 21007KT 11/10 A3003 RMK A01 T01060104  RH  098%=      5-min Rain = 0
KHO1 230733Z 20007KT 11/10 A3003 RMK A01 T01060104  RH  098%=      5-min Rain = 0
KHO1 230734Z 20007KT 11/10 A3003 RMK A01 T01060103  RH  098%=      5-min Rain = 0
KHO1 230735Z 21007KT 11/10 A3003 RMK A01 T01060103  RH  098%=      5-min Rain = 0
KHO1 230736Z 21007KT 11/10 A3003 RMK A01 T01050103  RH  098%=      5-min Rain = 0
KHO1 230737Z 22006KT 11/10 A3003 RMK A01 T01050103  RH  098%=      5-min Rain = 0
KHO1 230738Z 23006KT 11/10 A3003 RMK A01 T01050102  RH  098%=      5-min Rain = 0
KHO1 230739Z 23006KT 11/10 A3003 RMK A01 T01050102  RH  098%=      5-min Rain = 0
KHO1 230740Z 23007KT 11/10 A3003 RMK A01 T01050103  RH  098%=      5-min Rain = 0
KHO1 230741Z 23006KT 11/10 A3003 RMK A01 T01060104  RH  099%=      5-min Rain = 0
KHO1 230742Z 23006KT 11/10 A3003 RMK A01 T01050103  RH  099%=      5-min Rain = 0
KHO1 230743Z 23006KT 11/10 A3003 RMK A01 T01050103  RH  099%=      5-min Rain = 0
KHO1 230744Z 26005KT 10/10 A3004 RMK A01 T01040101  RH  098%=      5-min Rain = 0
KHO1 230745Z 28007KT 10/10 A3004 RMK A01 T01010097  RH  097%=      5-min Rain = 0
KHO1 230746Z 28008KT 10/10 A3004 RMK A01 T00990095  RH  097%=      5-min Rain = 0
KHO1 230747Z 27008KT 10/09 A3004 RMK A01 T00980094  RH  097%=      5-min Rain = 0
KHO1 230748Z 26007KT 10/10 A3004 RMK A01 T00980095  RH  098%=      5-min Rain = 0
KHO1 230749Z 25006KT 10/10 A3003 RMK A01 T00990096  RH  098%=      5-min Rain = 0
KHO1 230750Z 24007KT 10/10 A3003 RMK A01 T00980097  RH  099%=      5-min Rain = 0
KHO1 230751Z 24005KT 10/10 A3003 RMK A01 T00980096  RH  099%=      5-min Rain = 0
KHO1 230752Z 24006KT 10/10 A3003 RMK A01 T00980096  RH  099%=      5-min Rain = 0
KHO1 230753Z 24006KT 10/10 A3003 RMK A01 T00980096  RH  099%=      5-min Rain = 0
KHO1 230754Z 24006KT 10/10 A3003 RMK A01 T00970095  RH  099%=      5-min Rain = 0
KHO1 230755Z 23006KT 10/10 A3003 RMK A01 T00970096  RH  099%=      5-min Rain = 0
KHO1 230756Z 23005KT 10/10 A3004 RMK A01 T00980096  RH  099%=      5-min Rain = 0
KHO1 230757Z 24005KT 10/10 A3004 RMK A01 T00970096  RH  099%=      5-min Rain = 0
KHO1 230758Z 26005KT 10/10 A3004 RMK A01 T00970096  RH  099%=      5-min Rain = 0
KHO1 230759Z 27006KT 10/10 A3004 RMK A01 T00960095  RH  099%=      5-min Rain = 0
KHO1 230800Z 27006KT 10/10 A3004 RMK A01 T00970095  RH  099%=      5-min Rain = 0
KHO1 230801Z 28005KT 10/10 A3004 RMK A01 T00970096  RH  099%=      5-min Rain = 0
KHO1 230802Z 26005KT 10/10 A3004 RMK A01 T00970097  RH  100%=      5-min Rain = 0
KHO1 230803Z 25005KT 10/10 A3004 RMK A01 T00980097  RH  100%=      5-min Rain = 0
KHO1 230804Z 25005KT 10/10 A3004 RMK A01 T00980098  RH  100%=      5-min Rain = 0
KHO1 230805Z 25005KT 10/10 A3004 RMK A01 T00980098  RH  100%=      5-min Rain = 0
KHO1 230806Z 25005KT 10/10 A3004 RMK A01 T00980098  RH  100%=      5-min Rain = 0
KHO1 230807Z 24006KT 10/10 A3004 RMK A01 T00980097  RH  100%=      5-min Rain = 0
KHO1 230808Z 23006KT 10/10 A3004 RMK A01 T00970097  RH  100%=      5-min Rain = 0
KHO1 230809Z 22006KT 10/10 A3004 RMK A01 T00980097  RH  100%=      5-min Rain = 0
KHO1 230810Z 23006KT 10/10 A3004 RMK A01 T00980098  RH  100%=      5-min Rain = 0
KHO1 230811Z 24006KT 10/10 A3004 RMK A01 T00980098  RH  100%=      5-min Rain = 0
KHO1 230812Z 26005KT 10/10 A3004 RMK A01 T00980097  RH  100%=      5-min Rain = 0
KHO1 230813Z 27005KT 10/10 A3004 RMK A01 T00970096  RH  100%=      5-min Rain = 0
KHO1 230814Z 26005KT 10/10 A3004 RMK A01 T00970096  RH  100%=      5-min Rain = 0
KHO1 230815Z 25006KT 10/10 A3004 RMK A01 T00970097  RH  100%=      5-min Rain = 0
KHO1 230816Z 24006KT 10/10 A3004 RMK A01 T00980098  RH  100%=      5-min Rain = 0
KHO1 230817Z 23006KT 10/10 A3004 RMK A01 T00980098  RH  100%=      5-min Rain = 0
KHO1 230818Z 23006KT 10/10 A3004 RMK A01 T00970097  RH  100%=      5-min Rain = 0
KHO1 230819Z 22007KT 10/10 A3004 RMK A01 T00980098  RH  100%=      5-min Rain = 0
KHO1 230820Z 22007KT 10/10 A3004 RMK A01 T00990099  RH  100%=      5-min Rain = 0
KHO1 230821Z 23007KT 10/10 A3004 RMK A01 T00990099  RH  100%=      5-min Rain = 0
KHO1 230822Z 23006KT 10/10 A3004 RMK A01 T00980099  RH  100%=      5-min Rain = 0
KHO1 230823Z 23006KT 10/10 A3003 RMK A01 T00980098  RH  100%=      5-min Rain = 0
KHO1 230824Z 23006KT 10/10 A3003 RMK A01 T00980099  RH  100%=      5-min Rain = 0
KHO1 230825Z 24006KT 10/10 A3003 RMK A01 T00980098  RH  100%=      5-min Rain = 0
KHO1 230826Z 24006KT 10/10 A3003 RMK A01 T00970097  RH  100%=      5-min Rain = 0
KHO1 230827Z 24006KT 10/10 A3003 RMK A01 T00960095  RH  100%=      5-min Rain = 0
KHO1 230828Z 24007KT 10/09 A3004 RMK A01 T00950094  RH  100%=      5-min Rain = 0
KHO1 230829Z 24007KT 10/10 A3004 RMK A01 T00950095  RH  100%=      5-min Rain = 0
KHO1 230830Z 24008KT 10/10 A3004 RMK A01 T00960096  RH  100%=      5-min Rain = 0
KHO1 230831Z 24008KT 10/10 A3004 RMK A01 T00970097  RH  100%=      5-min Rain = 0
KHO1 230832Z 25007KT 10/10 A3003 RMK A01 T00980098  RH  100%=      5-min Rain = 0
KHO1 230833Z 26007KT 10/10 A3004 RMK A01 T00970097  RH  100%=      5-min Rain = 0
KHO1 230834Z 26007KT 10/10 A3004 RMK A01 T00980098  RH  100%=      5-min Rain = 0
KHO1 230835Z 25008KT 10/10 A3004 RMK A01 T01010101  RH  100%=      5-min Rain = 0
KHO1 230836Z 24008KT 10/10 A3003 RMK A01 T01010101  RH  100%=      5-min Rain = 0
KHO1 230837Z 23007KT 10/10 A3003 RMK A01 T01010101  RH  100%=      5-min Rain = 0
KHO1 230838Z 24007KT 10/10 A3004 RMK A01 T01000100  RH  100%=      5-min Rain = 0
KHO1 230839Z 25006KT 10/10 A3004 RMK A01 T01000100  RH  100%=      5-min Rain = 0
KHO1 230840Z 24006KT 10/10 A3004 RMK A01 T00990099  RH  100%=      5-min Rain = 0
KHO1 230841Z 24005KT 10/10 A3004 RMK A01 T00990099  RH  100%=      5-min Rain = 0
KHO1 230842Z 25005KT 10/10 A3004 RMK A01 T00980098  RH  100%=      5-min Rain = 0
KHO1 230843Z 27005KT 10/10 A3004 RMK A01 T00970097  RH  100%=      5-min Rain = 0
KHO1 230844Z 26004KT 10/10 A3004 RMK A01 T00970097  RH  100%=      5-min Rain = 0
KHO1 230845Z 26004KT 10/10 A3004 RMK A01 T00970097  RH  100%=      5-min Rain = 0
KHO1 230846Z 26004KT 10/10 A3004 RMK A01 T00970097  RH  100%=      5-min Rain = 0
KHO1 230847Z 25004KT 10/10 A3004 RMK A01 T00960096  RH  100%=      5-min Rain = 0
KHO1 230848Z 25004KT 10/10 A3004 RMK A01 T00960096  RH  100%=      5-min Rain = 0
KHO1 230849Z 26004KT 10/10 A3004 RMK A01 T00950095  RH  100%=      5-min Rain = 0
KHO1 230850Z 25004KT 10/10 A3004 RMK A01 T00950095  RH  100%=      5-min Rain = 0
KHO1 230851Z 24004KT 09/09 A3004 RMK A01 T00940094  RH  100%=      5-min Rain = 0
KHO1 230852Z 26004KT 09/09 A3004 RMK A01 T00940094  RH  100%=      5-min Rain = 0
KHO1 230853Z 26004KT 09/09 A3004 RMK A01 T00930094  RH  100%=      5-min Rain = 0
KHO1 230854Z 26003KT 09/09 A3004 RMK A01 T00940094  RH  100%=      5-min Rain = 0
KHO1 230855Z 26004KT 09/09 A3004 RMK A01 T00940094  RH  100%=      5-min Rain = 0
KHO1 230856Z 27004KT 09/09 A3004 RMK A01 T00940094  RH  100%=      5-min Rain = 0
KHO1 230857Z 27004KT 09/09 A3004 RMK A01 T00940094  RH  100%=      5-min Rain = 0
KHO1 230858Z 27004KT 09/09 A3004 RMK A01 T00930093  RH  100%=      5-min Rain = 0
KHO1 230859Z 27004KT 09/09 A3004 RMK A01 T00930093  RH  100%=      5-min Rain = 0
KHO1 230900Z 27004KT 09/09 A3004 RMK A01 T00930093  RH  100%=      5-min Rain = 0
KHO1 230901Z 26004KT 09/09 A3004 RMK A01 T00930093  RH  100%=      5-min Rain = 0
KHO1 230902Z 27004KT 09/09 A3004 RMK A01 T00930093  RH  100%=      5-min Rain = 0
KHO1 230903Z 26004KT 09/09 A3004 RMK A01 T00920092  RH  100%=      5-min Rain = 0
KHO1 230904Z 26004KT 09/09 A3004 RMK A01 T00920092  RH  100%=      5-min Rain = 0
KHO1 230905Z 26004KT 09/09 A3004 RMK A01 T00910091  RH  100%=      5-min Rain = 0
KHO1 230906Z 27004KT 09/09 A3004 RMK A01 T00900090  RH  100%=      5-min Rain = 0
KHO1 230907Z 28004KT 09/09 A3004 RMK A01 T00880089  RH  100%=      5-min Rain = 0
KHO1 230908Z 28003KT 09/09 A3004 RMK A01 T00880088  RH  100%=      5-min Rain = 0
KHO1 230909Z 27003KT 09/09 A3003 RMK A01 T00860086  RH  100%=      5-min Rain = 0
KHO1 230910Z 27003KT 09/09 A3003 RMK A01 T00850085  RH  100%=      5-min Rain = 0
KHO1 230911Z 27003KT 09/09 A3003 RMK A01 T00850085  RH  100%=      5-min Rain = 0
KHO1 230912Z 27003KT 09/09 A3003 RMK A01 T00850085  RH  100%=      5-min Rain = 0
KHO1 230913Z 26003KT 09/09 A3003 RMK A01 T00850085  RH  100%=      5-min Rain = 0
KHO1 230914Z 26003KT 09/09 A3003 RMK A01 T00860086  RH  100%=      5-min Rain = 0
KHO1 230915Z 27003KT 09/09 A3003 RMK A01 T00860086  RH  100%=      5-min Rain = 0
KHO1 230916Z 26003KT 09/09 A3003 RMK A01 T00850085  RH  100%=      5-min Rain = 0
KHO1 230917Z 26003KT 08/08 A3003 RMK A01 T00840084  RH  100%=      5-min Rain = 0
KHO1 230918Z 26002KT 08/08 A3003 RMK A01 T00840084  RH  100%=      5-min Rain = 0
KHO1 230919Z 26002KT 08/08 A3003 RMK A01 T00840084  RH  100%=      5-min Rain = 0
KHO1 230920Z 25002KT 08/08 A3003 RMK A01 T00840084  RH  100%=      5-min Rain = 0
KHO1 230921Z 23002KT 08/08 A3003 RMK A01 T00830083  RH  100%=      5-min Rain = 0
KHO1 230922Z 22002KT 08/08 A3003 RMK A01 T00820082  RH  100%=      5-min Rain = 0
KHO1 230923Z 21002KT 08/08 A3003 RMK A01 T00800080  RH  100%=      5-min Rain = 0
KHO1 230924Z 20002KT 08/08 A3003 RMK A01 T00790079  RH  100%=      5-min Rain = 0
KHO1 230925Z 20002KT 08/08 A3003 RMK A01 T00780078  RH  100%=      5-min Rain = 0
KHO1 230926Z 19002KT 08/08 A3003 RMK A01 T00780078  RH  100%=      5-min Rain = 0
KHO1 230927Z 20002KT 08/08 A3003 RMK A01 T00790079  RH  100%=      5-min Rain = 0
KHO1 230928Z 19002KT 08/08 A3003 RMK A01 T00800080  RH  100%=      5-min Rain = 0
KHO1 230929Z 19003KT 08/08 A3003 RMK A01 T00770077  RH  100%=      5-min Rain = 0
KHO1 230930Z 21003KT 08/08 A3003 RMK A01 T00770077  RH  100%=      5-min Rain = 0
KHO1 230931Z 21003KT 08/08 A3003 RMK A01 T00770077  RH  100%=      5-min Rain = 0
KHO1 230932Z 20003KT 08/08 A3003 RMK A01 T00770078  RH  100%=      5-min Rain = 0
KHO1 230933Z 20002KT 08/08 A3003 RMK A01 T00770077  RH  100%=      5-min Rain = 0
KHO1 230934Z 21002KT 08/08 A3003 RMK A01 T00760077  RH  100%=      5-min Rain = 0
KHO1 230935Z 22003KT 08/08 A3003 RMK A01 T00760076  RH  100%=      5-min Rain = 0
KHO1 230936Z 21003KT 08/08 A3003 RMK A01 T00760076  RH  100%=      5-min Rain = 0
KHO1 230937Z 21003KT 08/08 A3003 RMK A01 T00750075  RH  100%=      5-min Rain = 0
KHO1 230938Z 21002KT 07/07 A3003 RMK A01 T00740074  RH  100%=      5-min Rain = 0
KHO1 230939Z 21002KT 07/07 A3003 RMK A01 T00720072  RH  100%=      5-min Rain = 0
KHO1 230940Z 21002KT 07/07 A3003 RMK A01 T00700070  RH  100%=      5-min Rain = 0
KHO1 230941Z 21002KT 07/07 A3003 RMK A01 T00700070  RH  100%=      5-min Rain = 0
KHO1 230942Z 21002KT 07/07 A3003 RMK A01 T00700071  RH  100%=      5-min Rain = 0
KHO1 230943Z 21002KT 07/07 A3003 RMK A01 T00710071  RH  100%=      5-min Rain = 0
KHO1 230944Z 21002KT 07/07 A3003 RMK A01 T00710071  RH  100%=      5-min Rain = 0
KHO1 230945Z 22002KT 07/07 A3003 RMK A01 T00710071  RH  100%=      5-min Rain = 0
KHO1 230946Z 22002KT 07/07 A3003 RMK A01 T00710071  RH  100%=      5-min Rain = 0
KHO1 230947Z 23002KT 07/07 A3003 RMK A01 T00710072  RH  100%=      5-min Rain = 0
KHO1 230948Z 25002KT 07/07 A3003 RMK A01 T00720072  RH  100%=      5-min Rain = 0
KHO1 230949Z 24002KT 07/07 A3003 RMK A01 T00720072  RH  100%=      5-min Rain = 0
KHO1 230950Z 26003KT 07/07 A3003 RMK A01 T00700070  RH  100%=      5-min Rain = 0
KHO1 230951Z 26002KT 07/07 A3003 RMK A01 T00680068  RH  100%=      5-min Rain = 0
KHO1 230952Z 26001KT 07/07 A3003 RMK A01 T00660066  RH  100%=      5-min Rain = 0
KHO1 230953Z 25001KT 07/07 A3003 RMK A01 T00670067  RH  100%=      5-min Rain = 0
KHO1 230954Z 26001KT 07/07 A3003 RMK A01 T00670068  RH  100%=      5-min Rain = 0
KHO1 230955Z 27001KT 07/07 A3003 RMK A01 T00680068  RH  100%=      5-min Rain = 0
KHO1 230956Z 28002KT 07/07 A3003 RMK A01 T00670067  RH  100%=      5-min Rain = 0
KHO1 230957Z 27002KT 07/07 A3003 RMK A01 T00650065  RH  100%=      5-min Rain = 0
KHO1 230958Z 28003KT 06/06 A3003 RMK A01 T00630063  RH  100%=      5-min Rain = 0
KHO1 230959Z 28002KT 06/06 A3003 RMK A01 T00610061  RH  100%=      5-min Rain = 0
KHO1 231000Z 28003KT 06/06 A3003 RMK A01 T00610057  RH  097%=      5-min Rain = 0
KHO1 231001Z 28002KT 06/05 A3003 RMK A01 T00610053  RH  094%=      5-min Rain = 0
KHO1 231002Z 29003KT 06/05 A3003 RMK A01 T00610048  RH  091%=      5-min Rain = 0
KHO1 231003Z 30003KT 06/05 A3003 RMK A01 T00610045  RH  089%=      5-min Rain = 0
KHO1 231004Z 30003KT 06/04 A3003 RMK A01 T00610042  RH  088%=      5-min Rain = 0
KHO1 231005Z 31003KT 06/04 A3003 RMK A01 T00620041  RH  087%=      5-min Rain = 0
KHO1 231006Z 32003KT 06/04 A3003 RMK A01 T00620039  RH  085%=      5-min Rain = 0
KHO1 231007Z 33003KT 06/04 A3003 RMK A01 T00620037  RH  084%=      5-min Rain = 0
KHO1 231008Z 34004KT 06/04 A3003 RMK A01 T00610035  RH  084%=      5-min Rain = 0
KHO1 231009Z 34005KT 06/03 A3003 RMK A01 T00610030  RH  081%=      5-min Rain = 0
KHO1 231010Z 33005KT 06/02 A3003 RMK A01 T00590019  RH  075%=      5-min Rain = 0
KHO1 231011Z 32006KT 06/01 A3003 RMK A01 T00590012  RH  072%=      5-min Rain = 0
KHO1 231012Z 32006KT 06/01 A3003 RMK A01 T00590007  RH  069%=      5-min Rain = 0
KHO1 231013Z 32005KT 06/00 A3003 RMK A01 T00600004  RH  067%=      5-min Rain = 0
KHO1 231014Z 32004KT 06/01 A3003 RMK A01 T00600005  RH  068%=      5-min Rain = 0
KHO1 231015Z 32004KT 06/01 A3003 RMK A01 T00600005  RH  068%=      5-min Rain = 0
KHO1 231016Z 33003KT 06/00 A3003 RMK A01 T00590004  RH  067%=      5-min Rain = 0
KHO1 231017Z 33004KT 06/00 A3003 RMK A01 T00590002  RH  067%=      5-min Rain = 0
KHO1 231018Z 33004KT 06/00 A3003 RMK A01 T00590002  RH  066%=      5-min Rain = 0
KHO1 231019Z 33004KT 06/00 A3003 RMK A01 T00590000  RH  066%=      5-min Rain = 0
KHO1 231020Z 33004KT 06/00 A3003 RMK A01 T005900-0  RH  066%=      5-min Rain = 0
KHO1 231021Z 34003KT 06/00 A3003 RMK A01 T00590002  RH  066%=      5-min Rain = 0
KHO1 231022Z 34002KT 06/00 A3003 RMK A01 T00590004  RH  068%=      5-min Rain = 0
KHO1 231023Z 34003KT 06/01 A3003 RMK A01 T00590005  RH  068%=      5-min Rain = 0
KHO1 231024Z 34002KT 06/00 A3003 RMK A01 T00580004  RH  068%=      5-min Rain = 0
KHO1 231025Z 34002KT 06/00 A3003 RMK A01 T00580002  RH  067%=      5-min Rain = 0
KHO1 231026Z 34003KT 06/00 A3003 RMK A01 T005700-0  RH  067%=      5-min Rain = 0
KHO1 231027Z 33003KT 06/00 A3003 RMK A01 T005700-0  RH  067%=      5-min Rain = 0
KHO1 231028Z 33003KT 06/M00 A3003 RMK A01 T00571003  RH  065%=      5-min Rain = 0
KHO1 231029Z 33003KT 06/M01 A3003 RMK A01 T00571005  RH  064%=      5-min Rain = 0
KHO1 231030Z 33004KT 06/M01 A3003 RMK A01 T00571008  RH  063%=      5-min Rain = 0
KHO1 231031Z 32004KT 06/M01 A3003 RMK A01 T00581011  RH  061%=      5-min Rain = 0
KHO1 231032Z 32004KT 06/M02 A3003 RMK A01 T00581015  RH  060%=      5-min Rain = 0
KHO1 231033Z 32004KT 06/M02 A3003 RMK A01 T00591015  RH  059%=      5-min Rain = 0
KHO1 231034Z 32004KT 06/M02 A3003 RMK A01 T00591015  RH  059%=      5-min Rain = 0
KHO1 231035Z 32005KT 06/M02 A3003 RMK A01 T00601015  RH  059%=      5-min Rain = 0
KHO1 231036Z 32004KT 06/M02 A3003 RMK A01 T00601015  RH  059%=      5-min Rain = 0
KHO1 231037Z 32004KT 06/M02 A3003 RMK A01 T00591018  RH  058%=      5-min Rain = 0
KHO1 231038Z 32005KT 06/M02 A3003 RMK A01 T00591017  RH  058%=      5-min Rain = 0
KHO1 231039Z 32004KT 06/M02 A3003 RMK A01 T00591018  RH  058%=      5-min Rain = 0
KHO1 231040Z 32005KT 06/M02 A3003 RMK A01 T00591016  RH  059%=      5-min Rain = 0
KHO1 231041Z 32005KT 06/M02 A3003 RMK A01 T00581016  RH  059%=      5-min Rain = 0
KHO1 231042Z 32004KT 06/M02 A3003 RMK A01 T00581016  RH  059%=      5-min Rain = 0
KHO1 231043Z 32004KT 06/M02 A3003 RMK A01 T00571015  RH  060%=      5-min Rain = 0
KHO1 231044Z 32004KT 06/M01 A3003 RMK A01 T00561014  RH  060%=      5-min Rain = 0
KHO1 231045Z 32004KT 06/M01 A3003 RMK A01 T00561014  RH  061%=      5-min Rain = 0
KHO1 231046Z 32003KT 06/M02 A3003 RMK A01 T00551016  RH  060%=      5-min Rain = 0
KHO1 231047Z 32003KT 05/M02 A3003 RMK A01 T00541016  RH  061%=      5-min Rain = 0
KHO1 231048Z 32004KT 05/M02 A3003 RMK A01 T00541016  RH  061%=      5-min Rain = 0
KHO1 231049Z 32003KT 05/M02 A3003 RMK A01 T00541016  RH  061%=      5-min Rain = 0
KHO1 231050Z 32004KT 05/M02 A3003 RMK A01 T00531016  RH  061%=      5-min Rain = 0
KHO1 231051Z 32004KT 05/M02 A3004 RMK A01 T00531017  RH  061%=      5-min Rain = 0
KHO1 231052Z 32003KT 05/M02 A3004 RMK A01 T00531017  RH  061%=      5-min Rain = 0
KHO1 231053Z 32003KT 05/M02 A3004 RMK A01 T00521016  RH  061%=      5-min Rain = 0
KHO1 231054Z 31004KT 05/M02 A3004 RMK A01 T00521016  RH  061%=      5-min Rain = 0
KHO1 231055Z 31003KT 05/M02 A3004 RMK A01 T00511016  RH  062%=      5-min Rain = 0
KHO1 231056Z 31004KT 05/M02 A3004 RMK A01 T00501018  RH  062%=      5-min Rain = 0
KHO1 231057Z 31004KT 05/M02 A3004 RMK A01 T00491016  RH  062%=      5-min Rain = 0
KHO1 231058Z 32004KT 05/M02 A3004 RMK A01 T00481016  RH  063%=      5-min Rain = 0
KHO1 231059Z 32004KT 05/M02 A3004 RMK A01 T00471016  RH  064%=      5-min Rain = 0
KHO1 231100Z 32004KT 05/M02 A3004 RMK A01 T00471017  RH  063%=      5-min Rain = 0
KHO1 231101Z 32004KT 05/M02 A3004 RMK A01 T00461018  RH  063%=      5-min Rain = 0
KHO1 231102Z 32004KT 05/M02 A3004 RMK A01 T00461017  RH  063%=      5-min Rain = 0
KHO1 231103Z 32005KT 05/M02 A3004 RMK A01 T00461019  RH  063%=      5-min Rain = 0
KHO1 231104Z 32005KT 05/M02 A3004 RMK A01 T00461018  RH  063%=      5-min Rain = 0
KHO1 231105Z 32005KT 05/M02 A3004 RMK A01 T00461018  RH  063%=      5-min Rain = 0
KHO1 231106Z 32005KT 05/M02 A3004 RMK A01 T00461017  RH  064%=      5-min Rain = 0
KHO1 231107Z 32005KT 05/M02 A3004 RMK A01 T00451017  RH  064%=      5-min Rain = 0
KHO1 231108Z 32005KT 04/M02 A3004 RMK A01 T00441017  RH  064%=      5-min Rain = 0
KHO1 231109Z 32005KT 04/M02 A3004 RMK A01 T00431017  RH  065%=      5-min Rain = 0
KHO1 231110Z 32005KT 04/M02 A3004 RMK A01 T00431017  RH  065%=      5-min Rain = 0
KHO1 231111Z 32005KT 04/M02 A3004 RMK A01 T00421016  RH  066%=      5-min Rain = 0
KHO1 231112Z 32005KT 04/M02 A3004 RMK A01 T00421016  RH  066%=      5-min Rain = 0
KHO1 231113Z 32005KT 04/M02 A3004 RMK A01 T00411016  RH  066%=      5-min Rain = 0
KHO1 231114Z 32006KT 04/M02 A3004 RMK A01 T00411017  RH  066%=      5-min Rain = 0
KHO1 231115Z 32006KT 04/M02 A3004 RMK A01 T00411016  RH  067%=      5-min Rain = 0
KHO1 231116Z 32007KT 04/M02 A3004 RMK A01 T00401017  RH  066%=      5-min Rain = 0
KHO1 231117Z 32006KT 04/M02 A3004 RMK A01 T00401017  RH  066%=      5-min Rain = 0
KHO1 231118Z 32007KT 04/M02 A3004 RMK A01 T00401017  RH  066%=      5-min Rain = 0
KHO1 231119Z 32006KT 04/M02 A3004 RMK A01 T00401017  RH  066%=      5-min Rain = 0
KHO1 231120Z 32005KT 04/M02 A3004 RMK A01 T00401018  RH  066%=      5-min Rain = 0
KHO1 231121Z 32006KT 04/M02 A3004 RMK A01 T00401017  RH  066%=      5-min Rain = 0
KHO1 231122Z 32006KT 04/M02 A3004 RMK A01 T00401018  RH  066%=      5-min Rain = 0
KHO1 231123Z 32006KT 04/M02 A3005 RMK A01 T00401018  RH  066%=      5-min Rain = 0
KHO1 231124Z 32006KT 04/M02 A3004 RMK A01 T00401019  RH  065%=      5-min Rain = 0
KHO1 231125Z 32005KT 04/M02 A3005 RMK A01 T00411020  RH  065%=      5-min Rain = 0
KHO1 231126Z 32005KT 04/M02 A3004 RMK A01 T00411019  RH  065%=      5-min Rain = 0
KHO1 231127Z 32005KT 04/M02 A3004 RMK A01 T00411019  RH  065%=      5-min Rain = 0
KHO1 231128Z 32005KT 04/M02 A3005 RMK A01 T00411019  RH  065%=      5-min Rain = 0
KHO1 231129Z 32005KT 04/M02 A3005 RMK A01 T00401018  RH  066%=      5-min Rain = 0
KHO1 231130Z 32005KT 04/M02 A3005 RMK A01 T00391019  RH  066%=      5-min Rain = 0
KHO1 231131Z 32005KT 04/M02 A3005 RMK A01 T00391019  RH  066%=      5-min Rain = 0
KHO1 231132Z 32005KT 04/M02 A3005 RMK A01 T00391019  RH  066%=      5-min Rain = 0
KHO1 231133Z 32006KT 04/M02 A3005 RMK A01 T00381018  RH  067%=      5-min Rain = 0
KHO1 231134Z 32006KT 04/M02 A3005 RMK A01 T00381019  RH  067%=      5-min Rain = 0
KHO1 231135Z 32006KT 04/M02 A3005 RMK A01 T00371019  RH  067%=      5-min Rain = 0
KHO1 231136Z 32006KT 04/M02 A3005 RMK A01 T00371019  RH  067%=      5-min Rain = 0
KHO1 231137Z 32006KT 04/M02 A3005 RMK A01 T00371019  RH  066%=      5-min Rain = 0
KHO1 231138Z 32006KT 04/M02 A3005 RMK A01 T00381019  RH  066%=      5-min Rain = 0
KHO1 231139Z 32006KT 04/M02 A3005 RMK A01 T00381019  RH  066%=      5-min Rain = 0
KHO1 231140Z 32007KT 04/M02 A3005 RMK A01 T00381020  RH  066%=      5-min Rain = 0
KHO1 231141Z 32006KT 04/M02 A3005 RMK A01 T00381020  RH  066%=      5-min Rain = 0
KHO1 231142Z 32005KT 04/M02 A3005 RMK A01 T00381021  RH  066%=      5-min Rain = 0
KHO1 231143Z 32006KT 04/M02 A3005 RMK A01 T00381021  RH  065%=      5-min Rain = 0
KHO1 231144Z 32005KT 04/M02 A3005 RMK A01 T00381021  RH  065%=      5-min Rain = 0
KHO1 231145Z 32006KT 04/M02 A3005 RMK A01 T00381021  RH  065%=      5-min Rain = 0
KHO1 231146Z 32006KT 04/M02 A3005 RMK A01 T00381022  RH  065%=      5-min Rain = 0
KHO1 231147Z 32005KT 04/M02 A3005 RMK A01 T00391022  RH  064%=      5-min Rain = 0
KHO1 231148Z 32005KT 04/M02 A3005 RMK A01 T00401022  RH  064%=      5-min Rain = 0
KHO1 231149Z 32005KT 04/M02 A3005 RMK A01 T00391021  RH  065%=      5-min Rain = 0
KHO1 231150Z 32005KT 04/M02 A3005 RMK A01 T00391021  RH  065%=      5-min Rain = 0
KHO1 231151Z 32005KT 04/M02 A3005 RMK A01 T00391022  RH  065%=      5-min Rain = 0
KHO1 231152Z 32006KT 04/M02 A3005 RMK A01 T00381023  RH  064%=      5-min Rain = 0
KHO1 231153Z 32006KT 04/M02 A3005 RMK A01 T00381024  RH  064%=      5-min Rain = 0
KHO1 231154Z 32005KT 04/M02 A3005 RMK A01 T00381023  RH  064%=      5-min Rain = 0
KHO1 231155Z 32005KT 04/M02 A3005 RMK A01 T00381024  RH  064%=      5-min Rain = 0
KHO1 231156Z 32005KT 04/M02 A3006 RMK A01 T00391024  RH  064%=      5-min Rain = 0
KHO1 231157Z 32004KT 04/M03 A3005 RMK A01 T00391025  RH  063%=      5-min Rain = 0
KHO1 231158Z 32004KT 04/M02 A3005 RMK A01 T00391024  RH  063%=      5-min Rain = 0
KHO1 231159Z 32004KT 04/M02 A3006 RMK A01 T00391024  RH  063%=      5-min Rain = 0
KHO1 231200Z 32004KT 04/M02 A3006 RMK A01 T00391024  RH  064%=      5-min Rain = 0
KHO1 231201Z 31004KT 04/M02 A3006 RMK A01 T00381024  RH  064%=      5-min Rain = 0
KHO1 231202Z 31004KT 04/M02 A3006 RMK A01 T00381024  RH  064%=      5-min Rain = 0
KHO1 231203Z 32004KT 04/M02 A3006 RMK A01 T00371024  RH  064%=      5-min Rain = 0
KHO1 231204Z 32004KT 04/M02 A3006 RMK A01 T00371024  RH  064%=      5-min Rain = 0
KHO1 231205Z 31004KT 04/M02 A3006 RMK A01 T00361024  RH  064%=      5-min Rain = 0
KHO1 231206Z 32005KT 04/M02 A3006 RMK A01 T00361024  RH  065%=      5-min Rain = 0
KHO1 231207Z 31005KT 04/M02 A3006 RMK A01 T00361024  RH  065%=      5-min Rain = 0
KHO1 231208Z 31005KT 04/M03 A3006 RMK A01 T00351025  RH  065%=      5-min Rain = 0
KHO1 231209Z 31005KT 04/M03 A3006 RMK A01 T00351025  RH  065%=      5-min Rain = 0
KHO1 231210Z 31005KT 04/M03 A3006 RMK A01 T00351025  RH  065%=      5-min Rain = 0
KHO1 231211Z 31005KT 04/M03 A3006 RMK A01 T00351025  RH  065%=      5-min Rain = 0
KHO1 231212Z 31005KT 03/M03 A3006 RMK A01 T00341025  RH  065%=      5-min Rain = 0
KHO1 231213Z 31005KT 03/M03 A3006 RMK A01 T00341025  RH  065%=      5-min Rain = 0
KHO1 231214Z 31005KT 03/M03 A3006 RMK A01 T00341025  RH  065%=      5-min Rain = 0
KHO1 231215Z 31005KT 03/M03 A3006 RMK A01 T00341025  RH  065%=      5-min Rain = 0
KHO1 231216Z 31004KT 03/M03 A3006 RMK A01 T00341026  RH  065%=      5-min Rain = 0
KHO1 231217Z 31004KT 03/M03 A3006 RMK A01 T00341026  RH  065%=      5-min Rain = 0
KHO1 231218Z 31004KT 03/M03 A3006 RMK A01 T00341025  RH  065%=      5-min Rain = 0
KHO1 231219Z 31004KT 03/M03 A3006 RMK A01 T00341025  RH  065%=      5-min Rain = 0
KHO1 231220Z 31004KT 03/M03 A3006 RMK A01 T00341025  RH  065%=      5-min Rain = 0
KHO1 231221Z 31003KT 03/M03 A3006 RMK A01 T00341025  RH  065%=      5-min Rain = 0
KHO1 231222Z 30003KT 03/M03 A3006 RMK A01 T00341025  RH  065%=      5-min Rain = 0
KHO1 231223Z 30003KT 03/M02 A3006 RMK A01 T00331024  RH  066%=      5-min Rain = 0
KHO1 231224Z 30003KT 03/M02 A3006 RMK A01 T00331024  RH  066%=      5-min Rain = 0
KHO1 231225Z 30004KT 03/M02 A3006 RMK A01 T00321024  RH  067%=      5-min Rain = 0
KHO1 231226Z 30003KT 03/M02 A3006 RMK A01 T00321023  RH  068%=      5-min Rain = 0
KHO1 231227Z 30003KT 03/M02 A3006 RMK A01 T00311022  RH  068%=      5-min Rain = 0
KHO1 231228Z 30003KT 03/M02 A3006 RMK A01 T00301021  RH  069%=      5-min Rain = 0
KHO1 231229Z 30003KT 03/M02 A3006 RMK A01 T00301020  RH  070%=      5-min Rain = 0
KHO1 231230Z 29002KT 03/M02 A3006 RMK A01 T00291019  RH  070%=      5-min Rain = 0
KHO1 231231Z 29002KT 03/M02 A3006 RMK A01 T00291019  RH  071%=      5-min Rain = 0
KHO1 231232Z 29003KT 03/M02 A3006 RMK A01 T00291019  RH  071%=      5-min Rain = 0
KHO1 231233Z 29003KT 03/M02 A3006 RMK A01 T00281020  RH  071%=      5-min Rain = 0
KHO1 231234Z 29003KT 03/M02 A3006 RMK A01 T00271020  RH  071%=      5-min Rain = 0
KHO1 231235Z 30003KT 03/M02 A3006 RMK A01 T00261020  RH  071%=      5-min Rain = 0
KHO1 231236Z 30003KT 03/M02 A3006 RMK A01 T00261020  RH  072%=      5-min Rain = 0
KHO1 231237Z 30004KT 03/M02 A3006 RMK A01 T00251020  RH  072%=      5-min Rain = 0
KHO1 231238Z 30004KT 02/M02 A3006 RMK A01 T00241021  RH  072%=      5-min Rain = 0
KHO1 231239Z 30004KT 02/M02 A3006 RMK A01 T00241022  RH  072%=      5-min Rain = 0
KHO1 231240Z 30004KT 02/M02 A3006 RMK A01 T00241022  RH  072%=      5-min Rain = 0
KHO1 231241Z 30004KT 02/M02 A3006 RMK A01 T00241022  RH  071%=      5-min Rain = 0
KHO1 231242Z 30004KT 02/M02 A3007 RMK A01 T00241022  RH  071%=      5-min Rain = 0
KHO1 231243Z 30005KT 02/M02 A3007 RMK A01 T00241023  RH  071%=      5-min Rain = 0
KHO1 231244Z 30004KT 03/M02 A3007 RMK A01 T00251023  RH  071%=      5-min Rain = 0
KHO1 231245Z 30004KT 03/M02 A3007 RMK A01 T00251024  RH  070%=      5-min Rain = 0
KHO1 231246Z 30005KT 03/M02 A3007 RMK A01 T00251024  RH  070%=      5-min Rain = 0
KHO1 231247Z 30005KT 03/M03 A3007 RMK A01 T00251025  RH  070%=      5-min Rain = 0
KHO1 231248Z 30005KT 03/M03 A3007 RMK A01 T00261025  RH  069%=      5-min Rain = 0
KHO1 231249Z 30005KT 03/M03 A3007 RMK A01 T00261025  RH  069%=      5-min Rain = 0
KHO1 231250Z 30004KT 03/M02 A3007 RMK A01 T00261023  RH  070%=      5-min Rain = 0
KHO1 231251Z 30004KT 03/M02 A3007 RMK A01 T00261022  RH  070%=      5-min Rain = 0
KHO1 231252Z 29005KT 03/M02 A3007 RMK A01 T00251023  RH  070%=      5-min Rain = 0
KHO1 231253Z 29005KT 03/M02 A3007 RMK A01 T00251023  RH  071%=      5-min Rain = 0
KHO1 231254Z 29005KT 02/M02 A3007 RMK A01 T00241023  RH  071%=      5-min Rain = 0
KHO1 231255Z 30005KT 02/M02 A3007 RMK A01 T00241023  RH  071%=      5-min Rain = 0
KHO1 231256Z 30006KT 02/M02 A3007 RMK A01 T00241024  RH  071%=      5-min Rain = 0
KHO1 231257Z 30005KT 02/M02 A3007 RMK A01 T00241024  RH  070%=      5-min Rain = 0
KHO1 231258Z 30004KT 02/M03 A3007 RMK A01 T00241025  RH  070%=      5-min Rain = 0
KHO1 231259Z 30003KT 03/M02 A3007 RMK A01 T00251024  RH  070%=      5-min Rain = 0
KHO1 231300Z 29003KT 03/M02 A3007 RMK A01 T00251023  RH  071%=      5-min Rain = 0
KHO1 231301Z 29003KT 02/M02 A3007 RMK A01 T00241022  RH  071%=      5-min Rain = 0
KHO1 231302Z 29003KT 02/M02 A3007 RMK A01 T00241022  RH  072%=      5-min Rain = 0
KHO1 231303Z 30003KT 02/M02 A3007 RMK A01 T00231023  RH  072%=      5-min Rain = 0
KHO1 231304Z 30003KT 02/M02 A3007 RMK A01 T00231022  RH  072%=      5-min Rain = 0
KHO1 231305Z 29004KT 02/M02 A3007 RMK A01 T00231022  RH  072%=      5-min Rain = 0
KHO1 231306Z 29003KT 02/M02 A3007 RMK A01 T00221022  RH  072%=      5-min Rain = 0
KHO1 231307Z 29004KT 02/M02 A3008 RMK A01 T00221023  RH  072%=      5-min Rain = 0
KHO1 231308Z 29004KT 02/M02 A3008 RMK A01 T00231023  RH  072%=      5-min Rain = 0
KHO1 231309Z 30004KT 02/M02 A3008 RMK A01 T00231023  RH  071%=      5-min Rain = 0
KHO1 231310Z 30003KT 02/M02 A3008 RMK A01 T00241023  RH  071%=      5-min Rain = 0
KHO1 231311Z 29004KT 02/M02 A3008 RMK A01 T00241023  RH  071%=      5-min Rain = 0
KHO1 231312Z 29005KT 03/M02 A3008 RMK A01 T00251024  RH  070%=      5-min Rain = 0
KHO1 231313Z 30005KT 03/M02 A3008 RMK A01 T00251023  RH  070%=      5-min Rain = 0
KHO1 231314Z 29005KT 03/M02 A3008 RMK A01 T00261023  RH  070%=      5-min Rain = 0
KHO1 231315Z 29005KT 03/M02 A3008 RMK A01 T00261024  RH  070%=      5-min Rain = 0
KHO1 231316Z 30005KT 03/M02 A3008 RMK A01 T00261023  RH  070%=      5-min Rain = 0
KHO1 231317Z 29005KT 03/M02 A3008 RMK A01 T00271023  RH  070%=      5-min Rain = 0
KHO1 231318Z 30005KT 03/M02 A3008 RMK A01 T00271022  RH  070%=      5-min Rain = 0
KHO1 231319Z 30005KT 03/M02 A3008 RMK A01 T00271022  RH  070%=      5-min Rain = 0
KHO1 231320Z 30006KT 03/M02 A3008 RMK A01 T00271022  RH  070%=      5-min Rain = 0
KHO1 231321Z 30006KT 03/M02 A3008 RMK A01 T00271023  RH  069%=      5-min Rain = 0
KHO1 231322Z 30005KT 03/M02 A3008 RMK A01 T00281024  RH  069%=      5-min Rain = 0
KHO1 231323Z 30006KT 03/M02 A3008 RMK A01 T00281023  RH  069%=      5-min Rain = 0
KHO1 231324Z 30006KT 03/M02 A3008 RMK A01 T00281023  RH  069%=      5-min Rain = 0
KHO1 231325Z 30006KT 03/M02 A3008 RMK A01 T00291024  RH  068%=      5-min Rain = 0
KHO1 231326Z 30007KT 03/M02 A3008 RMK A01 T00291023  RH  068%=      5-min Rain = 0
KHO1 231327Z 30006KT 03/M03 A3008 RMK A01 T00301025  RH  067%=      5-min Rain = 0
KHO1 231328Z 30006KT 03/M02 A3008 RMK A01 T00311024  RH  067%=      5-min Rain = 0
KHO1 231329Z 31005KT 03/M02 A3009 RMK A01 T00321021  RH  068%=      5-min Rain = 0
KHO1 231330Z 30005KT 03/M02 A3009 RMK A01 T00321020  RH  069%=      5-min Rain = 0
KHO1 231331Z 30005KT 03/M02 A3009 RMK A01 T00331022  RH  067%=      5-min Rain = 0
KHO1 231332Z 31004KT 03/M02 A3009 RMK A01 T00341020  RH  068%=      5-min Rain = 0
KHO1 231333Z 31004KT 04/M02 A3009 RMK A01 T00351018  RH  068%=      5-min Rain = 0
KHO1 231334Z 31003KT 04/M02 A3009 RMK A01 T00351017  RH  069%=      5-min Rain = 0
KHO1 231335Z 31003KT 04/M02 A3009 RMK A01 T00361016  RH  069%=      5-min Rain = 0
KHO1 231336Z 31003KT 04/M02 A3009 RMK A01 T00361015  RH  069%=      5-min Rain = 0
KHO1 231337Z 32003KT 04/M02 A3009 RMK A01 T00371016  RH  068%=      5-min Rain = 0
KHO1 231338Z 32002KT 04/M02 A3009 RMK A01 T00371015  RH  069%=      5-min Rain = 0
KHO1 231339Z 32002KT 04/M02 A3009 RMK A01 T00381015  RH  068%=      5-min Rain = 0
KHO1 231340Z 32002KT 04/M01 A3009 RMK A01 T00381013  RH  069%=      5-min Rain = 0
KHO1 231341Z 32002KT 04/M01 A3009 RMK A01 T00391011  RH  070%=      5-min Rain = 0
KHO1 231342Z 32002KT 04/M01 A3009 RMK A01 T00401008  RH  071%=      5-min Rain = 0
KHO1 231343Z 32002KT 04/M01 A3009 RMK A01 T00411008  RH  070%=      5-min Rain = 0
KHO1 231344Z 33002KT 04/M01 A3009 RMK A01 T00411008  RH  070%=      5-min Rain = 0
KHO1 231345Z 33002KT 04/M01 A3009 RMK A01 T00421007  RH  070%=      5-min Rain = 0
KHO1 231346Z 32001KT 04/M01 A3009 RMK A01 T00431007  RH  070%=      5-min Rain = 0
KHO1 231347Z 33001KT 05/M01 A3009 RMK A01 T00451006  RH  070%=      5-min Rain = 0
KHO1 231348Z 33002KT 05/M01 A3009 RMK A01 T00461012  RH  066%=      5-min Rain = 0
KHO1 231349Z 33002KT 05/M01 A3009 RMK A01 T00481012  RH  065%=      5-min Rain = 0
KHO1 231350Z 33002KT 05/M01 A3009 RMK A01 T00491014  RH  064%=      5-min Rain = 0
KHO1 231351Z 32003KT 05/M01 A3009 RMK A01 T00501014  RH  063%=      5-min Rain = 0
KHO1 231352Z 31002KT 05/M01 A3009 RMK A01 T00521010  RH  064%=      5-min Rain = 0
KHO1 231353Z 31002KT 05/M01 A3009 RMK A01 T00531009  RH  064%=      5-min Rain = 0
KHO1 231354Z 32002KT 05/M01 A3009 RMK A01 T00541010  RH  063%=      5-min Rain = 0
KHO1 231355Z 32002KT 06/M01 A3009 RMK A01 T00551011  RH  062%=      5-min Rain = 0
KHO1 231356Z 32002KT 06/M01 A301 RMK A01 T00561012  RH  062%=      5-min Rain = 0
KHO1 231357Z 32002KT 06/M01 A301 RMK A01 T00571010  RH  062%=      5-min Rain = 0
KHO1 231358Z 32002KT 06/M01 A301 RMK A01 T00571009  RH  062%=      5-min Rain = 0
KHO1 231359Z 29001KT 06/M01 A301 RMK A01 T00581009  RH  062%=      5-min Rain = 0
KHO1 231400Z 29001KT 06/M01 A301 RMK A01 T00591008  RH  062%=      5-min Rain = 0
KHO1 231401Z 30002KT 06/M01 A301 RMK A01 T00601006  RH  063%=      5-min Rain = 0
KHO1 231402Z 29001KT 06/M01 A301 RMK A01 T00601007  RH  062%=      5-min Rain = 0
KHO1 231403Z 30001KT 06/M00 A301 RMK A01 T00611002  RH  064%=      5-min Rain = 0
KHO1 231404Z 30001KT 06/00 A301 RMK A01 T00620002  RH  065%=      5-min Rain = 0
KHO1 231405Z 30001KT 06/00 A301 RMK A01 T00630003  RH  065%=      5-min Rain = 0
KHO1 231406Z 30001KT 06/00 A301 RMK A01 T00640002  RH  064%=      5-min Rain = 0
KHO1 231407Z 31002KT 07/00 A301 RMK A01 T00650000  RH  063%=      5-min Rain = 0
KHO1 231408Z 31002KT 07/00 A301 RMK A01 T00660003  RH  064%=      5-min Rain = 0
KHO1 231409Z 32001KT 07/01 A301 RMK A01 T00670005  RH  065%=      5-min Rain = 0
KHO1 231410Z 31001KT 07/00 A301 RMK A01 T00680003  RH  063%=      5-min Rain = 0
KHO1 231411Z 32001KT 07/01 A301 RMK A01 T00690006  RH  064%=      5-min Rain = 0
KHO1 231412Z 32001KT 07/00 A301 RMK A01 T00700004  RH  063%=      5-min Rain = 0
KHO1 231413Z 33001KT 07/00 A301 RMK A01 T00720003  RH  062%=      5-min Rain = 0
KHO1 231414Z 32001KT 07/01 A301 RMK A01 T00730007  RH  063%=      5-min Rain = 0
KHO1 231415Z 31001KT 08/01 A301 RMK A01 T00750006  RH  061%=      5-min Rain = 0
KHO1 231416Z 00000KT 08/01 A301 RMK A01 T00760007  RH  061%=      5-min Rain = 0
KHO1 231417Z 30001KT 08/01 A301 RMK A01 T00780007  RH  061%=      5-min Rain = 0
KHO1 231418Z 30001KT 08/01 A301 RMK A01 T00790009  RH  061%=      5-min Rain = 0
KHO1 231419Z 30000KT 08/01 A301 RMK A01 T00810012  RH  062%=      5-min Rain = 0
KHO1 231420Z 00000KT 08/01 A301 RMK A01 T00820012  RH  062%=      5-min Rain = 0
KHO1 231421Z 30000KT 08/01 A301 RMK A01 T00830013  RH  061%=      5-min Rain = 0
KHO1 231422Z 29000KT 08/01 A301 RMK A01 T00840012  RH  061%=      5-min Rain = 0
KHO1 231423Z 00000KT 09/01 A301 RMK A01 T00850013  RH  061%=      5-min Rain = 0
KHO1 231424Z 00000KT 09/02 A301 RMK A01 T00870017  RH  061%=      5-min Rain = 0
KHO1 231425Z 00000KT 09/01 A301 RMK A01 T00880008  RH  057%=      5-min Rain = 0
KHO1 231426Z 33000KT 09/01 A301 RMK A01 T00890005  RH  056%=      5-min Rain = 0
KHO1 231427Z 34000KT 09/01 A301 RMK A01 T00910007  RH  056%=      5-min Rain = 0
KHO1 231428Z 33000KT 09/01 A301 RMK A01 T00920006  RH  055%=      5-min Rain = 0
KHO1 231429Z 31001KT 09/01 A301 RMK A01 T00940011  RH  056%=      5-min Rain = 0
KHO1 231430Z 32001KT 10/01 A301 RMK A01 T00960013  RH  056%=      5-min Rain = 0
KHO1 231431Z 34001KT 10/01 A301 RMK A01 T00980012  RH  055%=      5-min Rain = 0
KHO1 231432Z 35001KT 10/01 A301 RMK A01 T00990012  RH  055%=      5-min Rain = 0
KHO1 231433Z 35001KT 10/01 A301 RMK A01 T01000011  RH  054%=      5-min Rain = 0
KHO1 231434Z 35001KT 10/01 A301 RMK A01 T01020011  RH  053%=      5-min Rain = 0
KHO1 231435Z 35001KT 10/01 A301 RMK A01 T01030011  RH  053%=      5-min Rain = 0
KHO1 231436Z 35001KT 10/01 A301 RMK A01 T01030006  RH  051%=      5-min Rain = 0
KHO1 231437Z 35001KT 11/01 A301 RMK A01 T01050007  RH  051%=      5-min Rain = 0
KHO1 231438Z 35000KT 11/00 A301 RMK A01 T01060003  RH  049%=      5-min Rain = 0
KHO1 231439Z 35000KT 11/00 A301 RMK A01 T01070003  RH  049%=      5-min Rain = 0
KHO1 231440Z 35000KT 11/01 A301 RMK A01 T01090006  RH  049%=      5-min Rain = 0
KHO1 231441Z 00001KT 11/00 A301 RMK A01 T011000-0  RH  047%=      5-min Rain = 0
KHO1 231442Z 35001KT 11/M00 A301 RMK A01 T01121004  RH  045%=      5-min Rain = 0
KHO1 231443Z 01000KT 11/00 A301 RMK A01 T01130002  RH  046%=      5-min Rain = 0
KHO1 231444Z 02000KT 12/00 A301 RMK A01 T01150002  RH  046%=      5-min Rain = 0
KHO1 231445Z 35000KT 12/00 A301 RMK A01 T01170002  RH  045%=      5-min Rain = 0
KHO1 231446Z 35001KT 12/M01 A301 RMK A01 T01181007  RH  042%=      5-min Rain = 0
KHO1 231447Z 35001KT 12/M01 A301 RMK A01 T01191008  RH  041%=      5-min Rain = 0
KHO1 231448Z 00001KT 12/M01 A301 RMK A01 T01201008  RH  041%=      5-min Rain = 0
KHO1 231449Z 35001KT 12/M01 A301 RMK A01 T01211009  RH  041%=      5-min Rain = 0
KHO1 231450Z 34001KT 12/M01 A301 RMK A01 T01221007  RH  041%=      5-min Rain = 0
KHO1 231451Z 33001KT 12/M01 A301 RMK A01 T01231007  RH  041%=      5-min Rain = 0
KHO1 231452Z 32002KT 13/M01 A301 RMK A01 T01251010  RH  039%=      5-min Rain = 0
KHO1 231453Z 32002KT 13/M01 A301 RMK A01 T01251013  RH  038%=      5-min Rain = 0
KHO1 231454Z 32002KT 13/M01 A3011 RMK A01 T01261010  RH  039%=      5-min Rain = 0
KHO1 231455Z 33001KT 13/M01 A3011 RMK A01 T01281009  RH  039%=      5-min Rain = 0
KHO1 231456Z 33002KT 13/M02 A3011 RMK A01 T01281020  RH  036%=      5-min Rain = 0
KHO1 231457Z 32002KT 13/M02 A3011 RMK A01 T01291015  RH  037%=      5-min Rain = 0
KHO1 231458Z 32002KT 13/M01 A3011 RMK A01 T01301014  RH  037%=      5-min Rain = 0
KHO1 231459Z 33004KT 13/M02 A3011 RMK A01 T01301020  RH  035%=      5-min Rain = 0
KHO1 231500Z 34002KT 13/M01 A3011 RMK A01 T01311012  RH  037%=      5-min Rain = 0
KHO1 231501Z 31002KT 13/M00 A3011 RMK A01 T01331003  RH  039%=      5-min Rain = 0
KHO1 231502Z 31002KT 14/M00 A3011 RMK A01 T01351002  RH  039%=      5-min Rain = 0
KHO1 231503Z 32003KT 14/M01 A3011 RMK A01 T01361012  RH  036%=      5-min Rain = 0
KHO1 231504Z 32003KT 14/M01 A3011 RMK A01 T01371007  RH  037%=      5-min Rain = 0
KHO1 231505Z 32003KT 14/M01 A3011 RMK A01 T01381011  RH  036%=      5-min Rain = 0
KHO1 231506Z 34004KT 14/M02 A3011 RMK A01 T01391015  RH  035%=      5-min Rain = 0
KHO1 231507Z 34006KT 14/M03 A3011 RMK A01 T01391030  RH  031%=      5-min Rain = 0
KHO1 231508Z 33004KT 14/M03 A3011 RMK A01 T01401031  RH  031%=      5-min Rain = 0
KHO1 231509Z 34008KT 14/M03 A301 RMK A01 T01411034  RH  030%=      5-min Rain = 0
KHO1 231510Z 35006KT 14/M03 A301 RMK A01 T01411031  RH  030%=      5-min Rain = 0
KHO1 231511Z 35009KT 14/M04 A301 RMK A01 T01411037  RH  029%=      5-min Rain = 0
KHO1 231512Z 35008KT 14/M03 A301 RMK A01 T01411033  RH  030%=      5-min Rain = 0
KHO1 231513Z 33007KT 14/M04 A301 RMK A01 T01411035  RH  029%=      5-min Rain = 0
KHO1 231514Z 33007KT 14/M04 A301 RMK A01 T01431041  RH  028%=      5-min Rain = 0
KHO1 231515Z 33008KT 14/M04 A301 RMK A01 T01421043  RH  027%=      5-min Rain = 0
KHO1 231516Z 33008KT 14/M04 A301 RMK A01 T01431041  RH  028%=      5-min Rain = 0
KHO1 231517Z 33008KT 14/M04 A301 RMK A01 T01431040  RH  028%=      5-min Rain = 0
KHO1 231518Z 33007KT 14/M04 A3011 RMK A01 T01441037  RH  028%=      5-min Rain = 0
KHO1 231519Z 33007KT 15/M03 A3011 RMK A01 T01451033  RH  029%=      5-min Rain = 0
KHO1 231520Z 34008KT 15/M03 A3011 RMK A01 T01461031  RH  029%=      5-min Rain = 0
KHO1 231521Z 34009KT 15/M03 A3011 RMK A01 T01481032  RH  029%=      5-min Rain = 0
KHO1 231522Z 33006KT 15/M03 A3011 RMK A01 T01481031  RH  029%=      5-min Rain = 0
KHO1 231523Z 34007KT 15/M03 A3011 RMK A01 T01481031  RH  029%=      5-min Rain = 0
KHO1 231524Z 33010KT 15/M04 A3011 RMK A01 T01481037  RH  028%=      5-min Rain = 0
KHO1 231525Z 33008KT 15/M04 A3011 RMK A01 T01471038  RH  028%=      5-min Rain = 0
KHO1 231526Z 33007KT 15/M04 A3011 RMK A01 T01471038  RH  028%=      5-min Rain = 0
KHO1 231527Z 34011KT 15/M04 A3011 RMK A01 T01471039  RH  027%=      5-min Rain = 0
KHO1 231528Z 34009KT 15/M03 A3011 RMK A01 T01471033  RH  029%=      5-min Rain = 0
KHO1 231529Z 34008KT 15/M03 A3011 RMK A01 T01491031  RH  029%=      5-min Rain = 0
KHO1 231530Z 33010G15KT 15/M04 A3011 RMK A01 T01511036  RH  027%=      5-min Rain = 0
KHO1 231531Z 34012KT 15/M04 A3011 RMK A01 T01491044  RH  026%=      5-min Rain = 0
KHO1 231532Z 33011KT 15/M04 A3011 RMK A01 T01481044  RH  026%=      5-min Rain = 0
KHO1 231533Z 33012KT 15/M04 A3011 RMK A01 T01471044  RH  026%=      5-min Rain = 0
KHO1 231534Z 33014KT 15/M05 A3011 RMK A01 T01461046  RH  026%=      5-min Rain = 0
KHO1 231535Z 33014KT 15/M05 A3011 RMK A01 T01451049  RH  026%=      5-min Rain = 0
KHO1 231536Z 34011KT 14/M05 A3011 RMK A01 T01441046  RH  026%=      5-min Rain = 0
KHO1 231537Z 34010KT 15/M04 A3011 RMK A01 T01451038  RH  028%=      5-min Rain = 0
KHO1 231538Z 34010KT 15/M04 A3011 RMK A01 T01481041  RH  027%=      5-min Rain = 0
KHO1 231539Z 33008KT 15/M04 A3011 RMK A01 T01481040  RH  027%=      5-min Rain = 0
KHO1 231540Z 33008KT 15/M04 A3011 RMK A01 T01491038  RH  027%=      5-min Rain = 0
KHO1 231541Z 32010KT 15/M04 A3011 RMK A01 T01501038  RH  027%=      5-min Rain = 0
KHO1 231542Z 32010KT 15/M04 A301 RMK A01 T01511040  RH  027%=      5-min Rain = 0
KHO1 231543Z 33008KT 15/M04 A301 RMK A01 T01501040  RH  027%=      5-min Rain = 0
KHO1 231544Z 33009KT 15/M04 A301 RMK A01 T01501042  RH  026%=      5-min Rain = 0
KHO1 231545Z 32008KT 15/M04 A3011 RMK A01 T01501038  RH  027%=      5-min Rain = 0
KHO1 231546Z 31009KT 15/M04 A3011 RMK A01 T01511037  RH  027%=      5-min Rain = 0
KHO1 231547Z 32009KT 15/M04 A3011 RMK A01 T01501035  RH  028%=      5-min Rain = 0
KHO1 231548Z 33009KT 15/M04 A3011 RMK A01 T01511036  RH  027%=      5-min Rain = 0
KHO1 231549Z 33008KT 15/M04 A3011 RMK A01 T01501037  RH  027%=      5-min Rain = 0
KHO1 231550Z 33012KT 15/M04 A301 RMK A01 T01501042  RH  026%=      5-min Rain = 0
KHO1 231551Z 31010KT 15/M04 A301 RMK A01 T01481043  RH  026%=      5-min Rain = 0
KHO1 231552Z 32009KT 15/M04 A301 RMK A01 T01491042  RH  026%=      5-min Rain = 0
KHO1 231553Z 31008KT 15/M04 A301 RMK A01 T01501038  RH  027%=      5-min Rain = 0
KHO1 231554Z 32009KT 15/M04 A3011 RMK A01 T01521036  RH  027%=      5-min Rain = 0
KHO1 231555Z 32009KT 15/M04 A3011 RMK A01 T01521038  RH  027%=      5-min Rain = 0
KHO1 231556Z 33010KT 15/M04 A3011 RMK A01 T01521035  RH  027%=      5-min Rain = 0
KHO1 231557Z 33011KT 15/M04 A3011 RMK A01 T01531044  RH  025%=      5-min Rain = 0
KHO1 231558Z 33010KT 15/M05 A3011 RMK A01 T01511045  RH  026%=      5-min Rain = 0
KHO1 231559Z 34012KT 15/M05 A3011 RMK A01 T01501047  RH  025%=      5-min Rain = 0
KHO1 231600Z 33012KT 15/M05 A301 RMK A01 T01501048  RH  025%=      5-min Rain = 0
KHO1 231601Z 33010KT 15/M05 A301 RMK A01 T01491047  RH  025%=      5-min Rain = 0
KHO1 231602Z 33011KT 15/M04 A301 RMK A01 T01501043  RH  026%=      5-min Rain = 0
KHO1 231603Z 33008KT 15/M04 A301 RMK A01 T01511041  RH  026%=      5-min Rain = 0
KHO1 231604Z 32010KT 15/M04 A3011 RMK A01 T01531043  RH  026%=      5-min Rain = 0
KHO1 231605Z 32010KT 15/M05 A301 RMK A01 T01531045  RH  025%=      5-min Rain = 0
KHO1 231606Z 32010KT 15/M04 A3011 RMK A01 T01521044  RH  026%=      5-min Rain = 0
KHO1 231607Z 32009KT 15/M05 A3011 RMK A01 T01511047  RH  025%=      5-min Rain = 0
KHO1 231608Z 32007KT 15/M05 A3011 RMK A01 T01501046  RH  025%=      5-min Rain = 0
KHO1 231609Z 33008KT 15/M05 A301 RMK A01 T01501048  RH  025%=      5-min Rain = 0
KHO1 231610Z 32010KT 15/M05 A301 RMK A01 T01501045  RH  026%=      5-min Rain = 0
KHO1 231611Z 32011KT 15/M05 A301 RMK A01 T01501046  RH  026%=      5-min Rain = 0
KHO1 231612Z 32010KT 15/M05 A301 RMK A01 T01521046  RH  025%=      5-min Rain = 0
KHO1 231613Z 31011KT 15/M05 A301 RMK A01 T01531047  RH  025%=      5-min Rain = 0
KHO1 231614Z 31011KT 16/M04 A301 RMK A01 T01551044  RH  025%=      5-min Rain = 0
KHO1 231615Z 30011KT 16/M04 A301 RMK A01 T01561041  RH  025%=      5-min Rain = 0
KHO1 231616Z 30012KT 16/M05 A301 RMK A01 T01571048  RH  024%=      5-min Rain = 0
KHO1 231617Z 31011KT 16/M05 A301 RMK A01 T01561050  RH  024%=      5-min Rain = 0
KHO1 231618Z 31011KT 16/M05 A301 RMK A01 T01561047  RH  024%=      5-min Rain = 0
KHO1 231619Z 31012KT 16/M05 A301 RMK A01 T01571046  RH  025%=      5-min Rain = 0
KHO1 231620Z 31012KT 16/M05 A301 RMK A01 T01581046  RH  024%=      5-min Rain = 0
KHO1 231621Z 31010KT 16/M05 A301 RMK A01 T01591048  RH  024%=      5-min Rain = 0
KHO1 231622Z 31009KT 16/M05 A301 RMK A01 T01601045  RH  024%=      5-min Rain = 0
KHO1 231623Z 31011KT 16/M05 A301 RMK A01 T01621046  RH  024%=      5-min Rain = 0
KHO1 231624Z 31011KT 16/M05 A301 RMK A01 T01621048  RH  023%=      5-min Rain = 0
KHO1 231625Z 30011KT 16/M05 A301 RMK A01 T01611049  RH  023%=      5-min Rain = 0
KHO1 231626Z 30012KT 16/M05 A301 RMK A01 T01621050  RH  023%=      5-min Rain = 0
KHO1 231627Z 29011KT 16/M05 A301 RMK A01 T01621053  RH  022%=      5-min Rain = 0
KHO1 231628Z 29009KT 16/M05 A301 RMK A01 T01621046  RH  024%=      5-min Rain = 0
KHO1 231629Z 31012KT 17/M04 A301 RMK A01 T01661044  RH  024%=      5-min Rain = 0
KHO1 231630Z 32013KT 17/M05 A301 RMK A01 T01651054  RH  022%=      5-min Rain = 0
KHO1 231631Z 30009KT 16/M05 A301 RMK A01 T01641049  RH  023%=      5-min Rain = 0
KHO1 231632Z 30013KT 17/M05 A301 RMK A01 T01651047  RH  023%=      5-min Rain = 0
KHO1 231633Z 31012KT 17/M05 A301 RMK A01 T01651050  RH  022%=      5-min Rain = 0
KHO1 231634Z 30011KT 17/M05 A301 RMK A01 T01651051  RH  022%=      5-min Rain = 0
KHO1 231635Z 30008KT 17/M05 A301 RMK A01 T01661045  RH  023%=      5-min Rain = 0
KHO1 231636Z 30014KT 17/M05 A301 RMK A01 T01671051  RH  022%=      5-min Rain = 0
KHO1 231637Z 30013KT 17/M05 A301 RMK A01 T01671052  RH  022%=      5-min Rain = 0
KHO1 231638Z 29010KT 17/M05 A301 RMK A01 T01661052  RH  022%=      5-min Rain = 0
KHO1 231639Z 29009KT 17/M05 A301 RMK A01 T01671051  RH  022%=      5-min Rain = 0
KHO1 231640Z 29011KT 17/M05 A301 RMK A01 T01681049  RH  022%=      5-min Rain = 0
KHO1 231641Z 30010KT 17/M05 A301 RMK A01 T01701048  RH  022%=      5-min Rain = 0
KHO1 231642Z 31012KT 17/M05 A301 RMK A01 T01721049  RH  022%=      5-min Rain = 0
KHO1 231643Z 31012KT 17/M05 A301 RMK A01 T01711052  RH  021%=      5-min Rain = 0
KHO1 231644Z 30009KT 17/M05 A301 RMK A01 T01701054  RH  021%=      5-min Rain = 0
KHO1 231645Z 30008KT 17/M05 A301 RMK A01 T01711048  RH  022%=      5-min Rain = 0
KHO1 231646Z 31012KT 17/M05 A301 RMK A01 T01721049  RH  022%=      5-min Rain = 0
KHO1 231647Z 32012KT 17/M06 A301 RMK A01 T01731055  RH  020%=      5-min Rain = 0
KHO1 231648Z 32010KT 17/M06 A301 RMK A01 T01731055  RH  021%=      5-min Rain = 0
KHO1 231649Z 31008KT 17/M05 A301 RMK A01 T01731051  RH  021%=      5-min Rain = 0
KHO1 231650Z 32011G17KT 18/M05 A301 RMK A01 T01751051  RH  021%=      5-min Rain = 0
KHO1 231651Z 32014KT 17/M06 A301 RMK A01 T01741057  RH  020%=      5-min Rain = 0
KHO1 231652Z 31012KT 17/M06 A301 RMK A01 T01721056  RH  021%=      5-min Rain = 0
KHO1 231653Z 29010KT 17/M05 A301 RMK A01 T01721053  RH  021%=      5-min Rain = 0
KHO1 231654Z 30010KT 17/M05 A301 RMK A01 T01741053  RH  021%=      5-min Rain = 0
KHO1 231655Z 29008KT 18/M05 A301 RMK A01 T01751053  RH  021%=      5-min Rain = 0
KHO1 231656Z 31008G14KT 18/M05 A301 RMK A01 T01771046  RH  022%=      5-min Rain = 0
KHO1 231657Z 31012KT 18/M05 A301 RMK A01 T01781049  RH  021%=      5-min Rain = 0
KHO1 231658Z 29012KT 18/M05 A301 RMK A01 T01791051  RH  020%=      5-min Rain = 0
KHO1 231659Z 30013KT 18/M06 A301 RMK A01 T01781058  RH  020%=      5-min Rain = 0
KHO1 231700Z 30013KT 17/M06 A301 RMK A01 T01741061  RH  020%=      5-min Rain = 0
KHO1 231701Z 30011KT 17/M06 A301 RMK A01 T01731058  RH  020%=      5-min Rain = 0
KHO1 231702Z 32010KT 17/M05 A301 RMK A01 T01741053  RH  021%=      5-min Rain = 0
KHO1 231703Z 32013KT 18/M06 A3009 RMK A01 T01761056  RH  020%=      5-min Rain = 0
KHO1 231704Z 32010KT 18/M06 A3009 RMK A01 T01761055  RH  020%=      5-min Rain = 0
KHO1 231705Z 31010KT 18/M06 A3009 RMK A01 T01761058  RH  020%=      5-min Rain = 0
KHO1 231706Z 29008KT 18/M06 A3009 RMK A01 T01751059  RH  020%=      5-min Rain = 0
KHO1 231707Z 30009KT 17/M06 A3009 RMK A01 T01741056  RH  020%=      5-min Rain = 0
KHO1 231708Z 30008KT 18/M05 A3009 RMK A01 T01771046  RH  022%=      5-min Rain = 0
KHO1 231709Z 31008KT 18/M05 A3009 RMK A01 T01791053  RH  020%=      5-min Rain = 0
KHO1 231710Z 31011KT 18/M06 A3009 RMK A01 T01801057  RH  019%=      5-min Rain = 0
KHO1 231711Z 31010KT 18/M05 A3009 RMK A01 T01771054  RH  020%=      5-min Rain = 0
KHO1 231712Z 31010KT 18/M05 A3009 RMK A01 T01781051  RH  021%=      5-min Rain = 0
KHO1 231713Z 31011KT 18/M05 A3009 RMK A01 T01801053  RH  020%=      5-min Rain = 0
KHO1 231714Z 30009KT 18/M05 A3009 RMK A01 T01811048  RH  021%=      5-min Rain = 0
KHO1 231715Z 30009KT 18/M06 A3009 RMK A01 T01811056  RH  019%=      5-min Rain = 0
KHO1 231716Z 30010KT 18/M05 A3009 RMK A01 T01821053  RH  020%=      5-min Rain = 0
KHO1 231717Z 30010KT 18/M06 A3009 RMK A01 T01811060  RH  019%=      5-min Rain = 0
KHO1 231718Z 30009KT 18/M05 A3009 RMK A01 T01811052  RH  020%=      5-min Rain = 0
KHO1 231719Z 27010KT 18/M06 A3009 RMK A01 T01821061  RH  019%=      5-min Rain = 0
KHO1 231720Z 29012KT 18/M07 A3009 RMK A01 T01811067  RH  018%=      5-min Rain = 0
KHO1 231721Z 30013KT 18/M07 A3009 RMK A01 T01801065  RH  018%=      5-min Rain = 0
KHO1 231722Z 30013KT 18/M07 A3009 RMK A01 T01811065  RH  018%=      5-min Rain = 0
KHO1 231723Z 30013KT 18/M07 A3009 RMK A01 T01811067  RH  018%=      5-min Rain = 0
KHO1 231724Z 30010KT 18/M06 A3009 RMK A01 T01811064  RH  018%=      5-min Rain = 0
KHO1 231725Z 30009KT 18/M07 A3009 RMK A01 T01811074  RH  017%=      5-min Rain = 0
KHO1 231726Z 28009KT 18/M07 A3009 RMK A01 T01791069  RH  018%=      5-min Rain = 0
KHO1 231727Z 29011KT 18/M07 A3009 RMK A01 T01791067  RH  018%=      5-min Rain = 0
KHO1 231728Z 29009KT 18/M07 A3009 RMK A01 T01791072  RH  017%=      5-min Rain = 0
KHO1 231729Z 28011KT 18/M07 A3009 RMK A01 T01771069  RH  018%=      5-min Rain = 0
KHO1 231730Z 29012KT 18/M07 A3009 RMK A01 T01801065  RH  018%=      5-min Rain = 0
KHO1 231731Z 29012KT 18/M07 A3009 RMK A01 T01811068  RH  018%=      5-min Rain = 0
KHO1 231732Z 29011KT 18/M07 A3009 RMK A01 T01801071  RH  017%=      5-min Rain = 0
KHO1 231733Z 30010KT 18/M06 A3009 RMK A01 T01801062  RH  019%=      5-min Rain = 0
KHO1 231734Z 29012KT 18/M06 A3009 RMK A01 T01831061  RH  019%=      5-min Rain = 0
KHO1 231735Z 29009G14KT 18/M07 A3009 RMK A01 T01831066  RH  018%=      5-min Rain = 0
KHO1 231736Z 30009KT 18/M06 A3009 RMK A01 T01831063  RH  018%=      5-min Rain = 0
KHO1 231737Z 30011KT 18/M07 A3009 RMK A01 T01831068  RH  018%=      5-min Rain = 0
KHO1 231738Z 29010KT 18/M07 A3009 RMK A01 T01821066  RH  018%=      5-min Rain = 0
KHO1 231739Z 30011KT 18/M06 A3009 RMK A01 T01841062  RH  018%=      5-min Rain = 0
KHO1 231740Z 29013KT 19/M07 A3009 RMK A01 T01851066  RH  017%=      5-min Rain = 0
KHO1 231741Z 28011KT 18/M07 A3009 RMK A01 T01841072  RH  017%=      5-min Rain = 0
KHO1 231742Z 28011KT 18/M07 A3009 RMK A01 T01821067  RH  018%=      5-min Rain = 0
KHO1 231743Z 28010KT 18/M07 A3009 RMK A01 T01831066  RH  018%=      5-min Rain = 0
KHO1 231744Z 28009KT 18/M07 A3009 RMK A01 T01831071  RH  017%=      5-min Rain = 0
KHO1 231745Z 28007KT 18/M07 A3009 RMK A01 T01821066  RH  018%=      5-min Rain = 0
KHO1 231746Z 29010KT 18/M07 A3009 RMK A01 T01831070  RH  017%=      5-min Rain = 0
KHO1 231747Z 29012KT 18/M07 A3009 RMK A01 T01841069  RH  017%=      5-min Rain = 0
KHO1 231748Z 29009KT 18/M07 A3009 RMK A01 T01831067  RH  018%=      5-min Rain = 0
KHO1 231749Z 30010KT 18/M06 A3009 RMK A01 T01841062  RH  018%=      5-min Rain = 0
KHO1 231750Z 29012KT 19/M06 A3009 RMK A01 T01881064  RH  018%=      5-min Rain = 0
KHO1 231751Z 30012KT 19/M07 A3009 RMK A01 T01881066  RH  017%=      5-min Rain = 0
KHO1 231752Z 29011KT 19/M07 A3009 RMK A01 T01881070  RH  017%=      5-min Rain = 0
KHO1 231753Z 29010KT 18/M08 A3009 RMK A01 T01841075  RH  017%=      5-min Rain = 0
KHO1 231754Z 28011KT 18/M07 A3009 RMK A01 T01841070  RH  017%=      5-min Rain = 0
KHO1 231755Z 28009KT 19/M07 A3009 RMK A01 T01851067  RH  017%=      5-min Rain = 0
KHO1 231756Z 28011KT 19/M07 A3009 RMK A01 T01861072  RH  017%=      5-min Rain = 0
KHO1 231757Z 27009KT 19/M07 A3009 RMK A01 T01871065  RH  018%=      5-min Rain = 0
KHO1 231758Z 29008KT 19/M07 A3009 RMK A01 T01891068  RH  017%=      5-min Rain = 0
KHO1 231759Z 31009KT 19/M06 A3009 RMK A01 T01901060  RH  018%=      5-min Rain = 0
KHO1 231800Z 29011KT 19/M07 A3009 RMK A01 T01911066  RH  017%=      5-min Rain = 0
KHO1 231801Z 27012KT 19/M07 A3009 RMK A01 T01901074  RH  016%=      5-min Rain = 0
KHO1 231802Z 26013KT 19/M08 A3009 RMK A01 T01891080  RH  015%=      5-min Rain = 0
KHO1 231803Z 26011KT 19/M08 A3009 RMK A01 T01871078  RH  016%=      5-min Rain = 0
KHO1 231804Z 26009KT 19/M08 A3009 RMK A01 T01861080  RH  016%=      5-min Rain = 0
KHO1 231805Z 25007KT 19/M07 A3009 RMK A01 T01851073  RH  017%=      5-min Rain = 0
KHO1 231806Z 25009G14KT 19/M07 A3009 RMK A01 T01851072  RH  017%=      5-min Rain = 0
KHO1 231807Z 28010G16KT 19/M07 A3009 RMK A01 T01871067  RH  017%=      5-min Rain = 0
KHO1 231808Z 28012KT 19/M08 A3009 RMK A01 T01891078  RH  016%=      5-min Rain = 0
KHO1 231809Z 27012KT 19/M08 A3009 RMK A01 T01861078  RH  016%=      5-min Rain = 0
KHO1 231810Z 28013G18KT 19/M08 A3009 RMK A01 T01851077  RH  016%=      5-min Rain = 0
KHO1 231811Z 27012KT 19/M07 A3009 RMK A01 T01851074  RH  017%=      5-min Rain = 0
KHO1 231812Z 27014KT 19/M07 A3009 RMK A01 T01881071  RH  017%=      5-min Rain = 0
KHO1 231813Z 28014KT 19/M08 A3009 RMK A01 T01891079  RH  016%=      5-min Rain = 0
KHO1 231814Z 27014KT 19/M08 A3009 RMK A01 T01881077  RH  016%=      5-min Rain = 0
KHO1 231815Z 27011KT 19/M07 A3009 RMK A01 T01911070  RH  016%=      5-min Rain = 0
KHO1 231816Z 26014KT 19/M08 A3009 RMK A01 T01911078  RH  015%=      5-min Rain = 0
KHO1 231817Z 24015KT 19/M08 A3009 RMK A01 T01901075  RH  016%=      5-min Rain = 0
KHO1 231818Z 25013KT 19/M08 A3009 RMK A01 T01891080  RH  015%=      5-min Rain = 0
KHO1 231819Z 25010KT 19/M08 A3009 RMK A01 T01871078  RH  016%=      5-min Rain = 0
KHO1 231820Z 25011G16KT 19/M08 A3009 RMK A01 T01881076  RH  016%=      5-min Rain = 0
KHO1 231821Z 26016KT 19/M08 A3009 RMK A01 T01881082  RH  015%=      5-min Rain = 0
KHO1 231822Z 27014KT 19/M08 A3009 RMK A01 T01861081  RH  016%=      5-min Rain = 0
KHO1 231823Z 28012KT 19/M07 A3008 RMK A01 T01881074  RH  016%=      5-min Rain = 0
KHO1 231824Z 25009KT 19/M07 A3008 RMK A01 T01911067  RH  017%=      5-min Rain = 0
KHO1 231825Z 24010KT 19/M08 A3008 RMK A01 T01901079  RH  015%=      5-min Rain = 0
KHO1 231826Z 24008KT 19/M08 A3008 RMK A01 T01881075  RH  016%=      5-min Rain = 0
KHO1 231827Z 25013KT 19/M07 A3008 RMK A01 T01901072  RH  016%=      5-min Rain = 0
KHO1 231828Z 27014KT 19/M08 A3008 RMK A01 T01911083  RH  015%=      5-min Rain = 0
KHO1 231829Z 27014KT 19/M08 A3008 RMK A01 T01901080  RH  015%=      5-min Rain = 0
KHO1 231830Z 27011KT 19/M07 A3008 RMK A01 T01901074  RH  016%=      5-min Rain = 0
KHO1 231831Z 29011KT 19/M07 A3008 RMK A01 T01941071  RH  016%=      5-min Rain = 0
KHO1 231832Z 28011KT 19/M08 A3008 RMK A01 T01941076  RH  015%=      5-min Rain = 0
KHO1 231833Z 27009KT 19/M08 A3008 RMK A01 T01911080  RH  015%=      5-min Rain = 0
KHO1 231834Z 27011KT 19/M08 A3008 RMK A01 T01901080  RH  015%=      5-min Rain = 0
KHO1 231835Z 25013KT 19/M08 A3008 RMK A01 T01911075  RH  016%=      5-min Rain = 0
KHO1 231836Z 26016KT 19/M08 A3008 RMK A01 T01941081  RH  015%=      5-min Rain = 0
KHO1 231837Z 26013KT 20/M08 A3008 RMK A01 T01961079  RH  015%=      5-min Rain = 0
KHO1 231838Z 27013KT 20/M08 A3008 RMK A01 T01971081  RH  015%=      5-min Rain = 0
KHO1 231839Z 27015KT 20/M08 A3008 RMK A01 T01971083  RH  014%=      5-min Rain = 0
KHO1 231840Z 27013KT 19/M08 A3008 RMK A01 T01931084  RH  015%=      5-min Rain = 0
KHO1 231841Z 28012KT 19/M08 A3008 RMK A01 T01931080  RH  015%=      5-min Rain = 0
KHO1 231842Z 27012KT 19/M08 A3008 RMK A01 T01931084  RH  014%=      5-min Rain = 0
KHO1 231843Z 28010KT 19/M08 A3008 RMK A01 T01921081  RH  015%=      5-min Rain = 0
KHO1 231844Z 28010KT 19/M08 A3008 RMK A01 T01921084  RH  015%=      5-min Rain = 0
KHO1 231845Z 28007KT 19/M08 A3008 RMK A01 T01911082  RH  015%=      5-min Rain = 0
KHO1 231846Z 29007KT 19/M08 A3007 RMK A01 T01911080  RH  015%=      5-min Rain = 0
KHO1 231847Z 25008KT 19/M08 A3008 RMK A01 T01911081  RH  015%=      5-min Rain = 0
KHO1 231848Z 25012KT 19/M08 A3008 RMK A01 T01921079  RH  015%=      5-min Rain = 0
KHO1 231849Z 25010KT 19/M08 A3007 RMK A01 T01931083  RH  015%=      5-min Rain = 0
KHO1 231850Z 28012KT 19/M08 A3007 RMK A01 T01941082  RH  015%=      5-min Rain = 0
KHO1 231851Z 26011KT 20/M08 A3008 RMK A01 T01951081  RH  015%=      5-min Rain = 0
KHO1 231852Z 26011KT 19/M09 A3007 RMK A01 T01941086  RH  014%=      5-min Rain = 0
KHO1 231853Z 28010KT 19/M08 A3007 RMK A01 T01941081  RH  015%=      5-min Rain = 0
KHO1 231854Z 29008KT 20/M08 A3007 RMK A01 T01951079  RH  015%=      5-min Rain = 0
KHO1 231855Z 28007KT 20/M08 A3007 RMK A01 T01961079  RH  015%=      5-min Rain = 0
KHO1 231856Z 26015G20KT 20/M08 A3007 RMK A01 T01981082  RH  014%=      5-min Rain = 0
KHO1 231857Z 25015KT 20/M08 A3007 RMK A01 T01991084  RH  014%=      5-min Rain = 0
KHO1 231858Z 24013KT 20/M08 A3007 RMK A01 T01981083  RH  014%=      5-min Rain = 0
KHO1 231859Z 23012KT 20/M08 A3007 RMK A01 T02011079  RH  014%=      5-min Rain = 0
KHO1 231900Z 23016KT 20/M08 A3007 RMK A01 T02021083  RH  014%=      5-min Rain = 0
KHO1 231901Z 23012KT 20/M09 A3007 RMK A01 T01971090  RH  014%=      5-min Rain = 0
KHO1 231902Z 22010KT 20/M09 A3007 RMK A01 T01951085  RH  014%=      5-min Rain = 0
KHO1 231903Z 23010KT 20/M09 A3007 RMK A01 T01971087  RH  014%=      5-min Rain = 0
KHO1 231904Z 24006G12KT 20/M08 A3007 RMK A01 T01961083  RH  014%=      5-min Rain = 0
KHO1 231905Z 26014KT 20/M09 A3007 RMK A01 T01981085  RH  014%=      5-min Rain = 0
KHO1 231906Z 25013KT 20/M09 A3007 RMK A01 T01981086  RH  014%=      5-min Rain = 0
KHO1 231907Z 25015KT 20/M09 A3007 RMK A01 T02001085  RH  014%=      5-min Rain = 0
KHO1 231908Z 25015KT 20/M09 A3007 RMK A01 T02001086  RH  014%=      5-min Rain = 0
KHO1 231909Z 25011KT 20/M08 A3007 RMK A01 T01981084  RH  014%=      5-min Rain = 0
KHO1 231910Z 25011G16KT 20/M09 A3007 RMK A01 T02001085  RH  014%=      5-min Rain = 0
KHO1 231911Z 26010KT 20/M09 A3007 RMK A01 T01981087  RH  014%=      5-min Rain = 0
KHO1 231912Z 24008KT 20/M08 A3007 RMK A01 T01981084  RH  014%=      5-min Rain = 0
KHO1 231913Z 24008KT 20/M09 A3007 RMK A01 T01981088  RH  014%=      5-min Rain = 0
KHO1 231914Z 24009KT 20/M09 A3007 RMK A01 T01961092  RH  013%=      5-min Rain = 0
KHO1 231915Z 26012KT 20/M08 A3007 RMK A01 T01971084  RH  014%=      5-min Rain = 0
KHO1 231916Z 26011KT 20/M08 A3007 RMK A01 T02041082  RH  014%=      5-min Rain = 0
KHO1 231917Z 26014KT 20/M09 A3007 RMK A01 T02041086  RH  013%=      5-min Rain = 0
KHO1 231918Z 26013KT 21/M08 A3007 RMK A01 T02071082  RH  014%=      5-min Rain = 0
KHO1 231919Z 26012KT 21/M09 A3007 RMK A01 T02051087  RH  013%=      5-min Rain = 0
KHO1 231920Z 24013KT 20/M09 A3007 RMK A01 T02031085  RH  014%=      5-min Rain = 0
KHO1 231921Z 24013KT 21/M08 A3007 RMK A01 T02051083  RH  014%=      5-min Rain = 0
KHO1 231922Z 24015KT 20/M09 A3006 RMK A01 T02021088  RH  013%=      5-min Rain = 0
KHO1 231923Z 23016KT 20/M09 A3006 RMK A01 T02001089  RH  013%=      5-min Rain = 0
KHO1 231924Z 25012KT 20/M09 A3006 RMK A01 T01971091  RH  013%=      5-min Rain = 0
KHO1 231925Z 24016G26KT 20/M09 A3006 RMK A01 T01991086  RH  014%=      5-min Rain = 0
KHO1 231926Z 26017KT 20/M09 A3006 RMK A01 T02021089  RH  013%=      5-min Rain = 0
KHO1 231927Z 27015KT 20/M09 A3006 RMK A01 T02011090  RH  013%=      5-min Rain = 0
KHO1 231928Z 25013KT 20/M09 A3006 RMK A01 T02021086  RH  013%=      5-min Rain = 0
KHO1 231929Z 26012KT 20/M09 A3006 RMK A01 T02011093  RH  013%=      5-min Rain = 0
KHO1 231930Z 25015KT 20/M09 A3006 RMK A01 T02011091  RH  013%=      5-min Rain = 0
KHO1 231931Z 26014KT 21/M08 A3006 RMK A01 T02071084  RH  013%=      5-min Rain = 0
KHO1 231932Z 26015KT 21/M09 A3006 RMK A01 T02091092  RH  012%=      5-min Rain = 0
KHO1 231933Z 26010KT 21/M09 A3006 RMK A01 T02061089  RH  013%=      5-min Rain = 0
KHO1 231934Z 24010KT 21/M09 A3006 RMK A01 T02061092  RH  013%=      5-min Rain = 0
KHO1 231935Z 26014KT 20/M09 A3006 RMK A01 T02031094  RH  013%=      5-min Rain = 0
KHO1 231936Z 26013KT 20/M10 A3006 RMK A01 T02021096  RH  013%=      5-min Rain = 0
KHO1 231937Z 26016KT 20/M10 A3006 RMK A01 T02011100  RH  012%=      5-min Rain = 0
KHO1 231938Z 27016KT 20/M10 A3006 RMK A01 T02021099  RH  012%=      5-min Rain = 0
KHO1 231939Z 27011KT 20/M10 A3006 RMK A01 T02001104  RH  012%=      5-min Rain = 0
KHO1 231940Z 26010G18KT 20/M10 A3006 RMK A01 T01991095  RH  013%=      5-min Rain = 0
KHO1 231941Z 27014KT 20/M10 A3006 RMK A01 T02011097  RH  012%=      5-min Rain = 0
KHO1 231942Z 28014KT 20/M09 A3006 RMK A01 T02031093  RH  013%=      5-min Rain = 0
KHO1 231943Z 28012KT 20/M09 A3006 RMK A01 T02031094  RH  013%=      5-min Rain = 0
KHO1 231944Z 28012KT 20/M09 A3006 RMK A01 T02021094  RH  013%=      5-min Rain = 0
KHO1 231945Z 26014KT 20/M10 A3006 RMK A01 T02011098  RH  012%=      5-min Rain = 0
KHO1 231946Z 27013KT 20/M10 A3006 RMK A01 T01991101  RH  012%=      5-min Rain = 0
KHO1 231947Z 26011KT 20/M10 A3006 RMK A01 T01981099  RH  012%=      5-min Rain = 0
KHO1 231948Z 25010KT 20/M09 A3006 RMK A01 T01991094  RH  013%=      5-min Rain = 0
KHO1 231949Z 24010G15KT 20/M09 A3006 RMK A01 T02001086  RH  014%=      5-min Rain = 0
KHO1 231950Z 24014KT 20/M09 A3006 RMK A01 T02021093  RH  013%=      5-min Rain = 0
KHO1 231951Z 25017KT 20/M10 A3006 RMK A01 T02001095  RH  013%=      5-min Rain = 0
KHO1 231952Z 25017KT 20/M10 A3006 RMK A01 T01991097  RH  013%=      5-min Rain = 0
KHO1 231953Z 26014KT 20/M10 A3006 RMK A01 T01981101  RH  012%=      5-min Rain = 0
KHO1 231954Z 26014KT 20/M10 A3006 RMK A01 T02001098  RH  012%=      5-min Rain = 0
KHO1 231955Z 27013KT 20/M10 A3006 RMK A01 T02021101  RH  012%=      5-min Rain = 0
KHO1 231956Z 28011KT 20/M10 A3006 RMK A01 T02011103  RH  012%=      5-min Rain = 0
KHO1 231957Z 26010KT 20/M10 A3006 RMK A01 T02031097  RH  012%=      5-min Rain = 0
KHO1 231958Z 27008KT 20/M10 A3005 RMK A01 T02031095  RH  013%=      5-min Rain = 0
KHO1 231959Z 26013KT 20/M10 A3005 RMK A01 T02031097  RH  012%=      5-min Rain = 0
KHO1 232000Z 27016G21KT 21/M10 A3005 RMK A01 T02061097  RH  012%=      5-min Rain = 0
KHO1 232001Z 27015KT 21/M10 A3005 RMK A01 T02051102  RH  012%=      5-min Rain = 0
KHO1 232002Z 29012KT 21/M10 A3005 RMK A01 T02051096  RH  012%=      5-min Rain = 0
KHO1 232003Z 29014KT 20/M10 A3005 RMK A01 T02041100  RH  012%=      5-min Rain = 0
KHO1 232004Z 28016KT 20/M10 A3005 RMK A01 T02021102  RH  012%=      5-min Rain = 0
KHO1 232005Z 28013KT 20/M11 A3005 RMK A01 T02001106  RH  012%=      5-min Rain = 0
KHO1 232006Z 28012KT 20/M11 A3005 RMK A01 T01981109  RH  012%=      5-min Rain = 0
KHO1 232007Z 27010KT 20/M11 A3005 RMK A01 T01971110  RH  011%=      5-min Rain = 0
KHO1 232008Z 27009KT 20/M11 A3005 RMK A01 T01981107  RH  012%=      5-min Rain = 0
KHO1 232009Z 27011KT 20/M10 A3005 RMK A01 T02001099  RH  012%=      5-min Rain = 0
KHO1 232010Z 24012KT 20/M10 A3005 RMK A01 T02001099  RH  012%=      5-min Rain = 0
KHO1 232011Z 26011G17KT 20/M10 A3005 RMK A01 T01991097  RH  013%=      5-min Rain = 0
KHO1 232012Z 29011G16KT 20/M10 A3005 RMK A01 T02011095  RH  013%=      5-min Rain = 0
KHO1 232013Z 28010KT 20/M09 A3005 RMK A01 T02041089  RH  013%=      5-min Rain = 0
KHO1 232014Z 30011KT 21/M09 A3005 RMK A01 T02051094  RH  012%=      5-min Rain = 0
KHO1 232015Z 30011KT 20/M10 A3004 RMK A01 T02031096  RH  012%=      5-min Rain = 0
KHO1 232016Z 30010KT 20/M10 A3004 RMK A01 T02031095  RH  013%=      5-min Rain = 0
KHO1 232017Z 27012KT 20/M10 A3004 RMK A01 T02041095  RH  012%=      5-min Rain = 0
KHO1 232018Z 27011KT 21/M09 A3004 RMK A01 T02061089  RH  013%=      5-min Rain = 0
KHO1 232019Z 24012KT 21/M09 A3005 RMK A01 T02081088  RH  013%=      5-min Rain = 0
KHO1 232020Z 25009KT 21/M09 A3004 RMK A01 T02071089  RH  013%=      5-min Rain = 0
KHO1 232021Z 23009KT 21/M08 A3004 RMK A01 T02081081  RH  014%=      5-min Rain = 0
KHO1 232022Z 25010KT 21/M09 A3004 RMK A01 T02071086  RH  013%=      5-min Rain = 0
KHO1 232023Z 26010G15KT 21/M09 A3004 RMK A01 T02071094  RH  012%=      5-min Rain = 0
KHO1 232024Z 25013KT 21/M10 A3004 RMK A01 T02071103  RH  012%=      5-min Rain = 0
KHO1 232025Z 25013KT 20/M11 A3004 RMK A01 T02041105  RH  011%=      5-min Rain = 0
KHO1 232026Z 25011G16KT 20/M10 A3004 RMK A01 T02031098  RH  012%=      5-min Rain = 0
KHO1 232027Z 25015KT 20/M10 A3005 RMK A01 T02041098  RH  012%=      5-min Rain = 0
KHO1 232028Z 26016KT 20/M10 A3004 RMK A01 T02031096  RH  012%=      5-min Rain = 0
KHO1 232029Z 24016KT 20/M10 A3005 RMK A01 T02031096  RH  012%=      5-min Rain = 0
KHO1 232030Z 24017KT 20/M10 A3005 RMK A01 T02021098  RH  012%=      5-min Rain = 0
KHO1 232031Z 25013KT 20/M10 A3005 RMK A01 T02011097  RH  012%=      5-min Rain = 0
KHO1 232032Z 24010KT 20/M10 A3005 RMK A01 T02011097  RH  012%=      5-min Rain = 0
KHO1 232033Z 26009KT 20/M10 A3005 RMK A01 T02001096  RH  013%=      5-min Rain = 0
KHO1 232034Z 27009KT 20/M10 A3005 RMK A01 T02021096  RH  013%=      5-min Rain = 0
KHO1 232035Z 27011KT 20/M10 A3005 RMK A01 T02011101  RH  012%=      5-min Rain = 0
KHO1 232036Z 26008KT 20/M10 A3005 RMK A01 T02001100  RH  012%=      5-min Rain = 0
KHO1 232037Z 26007KT 20/M10 A3004 RMK A01 T02001098  RH  012%=      5-min Rain = 0
KHO1 232038Z 29008KT 20/M09 A3004 RMK A01 T02021092  RH  013%=      5-min Rain = 0
KHO1 232039Z 31009KT 20/M09 A3004 RMK A01 T02031094  RH  013%=      5-min Rain = 0
KHO1 232040Z 28007KT 20/M09 A3004 RMK A01 T02041091  RH  013%=      5-min Rain = 0
KHO1 232041Z 26008G15KT 20/M09 A3004 RMK A01 T02031091  RH  013%=      5-min Rain = 0
KHO1 232042Z 25012KT 20/M09 A3004 RMK A01 T02031093  RH  013%=      5-min Rain = 0
KHO1 232043Z 23011KT 20/M10 A3004 RMK A01 T02031096  RH  012%=      5-min Rain = 0
KHO1 232044Z 23009KT 20/M10 A3004 RMK A01 T01991101  RH  012%=      5-min Rain = 0
KHO1 232045Z 23008KT 20/M10 A3004 RMK A01 T01981098  RH  013%=      5-min Rain = 0
KHO1 232046Z 24012KT 20/M09 A3004 RMK A01 T02021088  RH  013%=      5-min Rain = 0
KHO1 232047Z 22010KT 20/M09 A3004 RMK A01 T02031090  RH  013%=      5-min Rain = 0
KHO1 232048Z 21007KT 20/M09 A3004 RMK A01 T02011094  RH  013%=      5-min Rain = 0
KHO1 232049Z 21009KT 20/M09 A3004 RMK A01 T02001093  RH  013%=      5-min Rain = 0
KHO1 232050Z 22007KT 20/M09 A3003 RMK A01 T01991092  RH  013%=      5-min Rain = 0
KHO1 232051Z 23008KT 20/M08 A3003 RMK A01 T02031082  RH  014%=      5-min Rain = 0
KHO1 232052Z 23011G19KT 21/M08 A3003 RMK A01 T02071083  RH  013%=      5-min Rain = 0
KHO1 232053Z 25012KT 21/M09 A3003 RMK A01 T02071087  RH  013%=      5-min Rain = 0
KHO1 232054Z 24014G19KT 21/M08 A3003 RMK A01 T02101080  RH  013%=      5-min Rain = 0
KHO1 232055Z 23016KT 21/M09 A3004 RMK A01 T02101088  RH  013%=      5-min Rain = 0
KHO1 232056Z 24013KT 21/M09 A3003 RMK A01 T02081088  RH  013%=      5-min Rain = 0
KHO1 232057Z 24012KT 21/M09 A3003 RMK A01 T02071090  RH  013%=      5-min Rain = 0
KHO1 232058Z 22012KT 21/M09 A3003 RMK A01 T02061091  RH  013%=      5-min Rain = 0
KHO1 232059Z 22011KT 21/M09 A3003 RMK A01 T02051091  RH  013%=      5-min Rain = 0
KHO1 232100Z 23010KT 21/M09 A3003 RMK A01 T02051088  RH  013%=      5-min Rain = 0
KHO1 232101Z 23010KT 20/M09 A3003 RMK A01 T02041091  RH  013%=      5-min Rain = 0
KHO1 232102Z 22009KT 20/M09 A3003 RMK A01 T02041089  RH  013%=      5-min Rain = 0
KHO1 232103Z 22009KT 20/M09 A3003 RMK A01 T02041089  RH  013%=      5-min Rain = 0
KHO1 232104Z 23008KT 21/M09 A3003 RMK A01 T02051086  RH  013%=      5-min Rain = 0
KHO1 232105Z 25011KT 21/M08 A3003 RMK A01 T02081084  RH  013%=      5-min Rain = 0
KHO1 232106Z 25012KT 21/M09 A3003 RMK A01 T02101086  RH  013%=      5-min Rain = 0
KHO1 232107Z 26014KT 21/M09 A3003 RMK A01 T02091089  RH  013%=      5-min Rain = 0
KHO1 232108Z 25013KT 21/M09 A3003 RMK A01 T02071091  RH  013%=      5-min Rain = 0
KHO1 232109Z 25010KT 21/M09 A3003 RMK A01 T02051088  RH  013%=      5-min Rain = 0
KHO1 232110Z 26011KT 21/M09 A3003 RMK A01 T02051091  RH  013%=      5-min Rain = 0
KHO1 232111Z 23009KT 20/M09 A3003 RMK A01 T02041092  RH  013%=      5-min Rain = 0
KHO1 232112Z 21008KT 20/M10 A3003 RMK A01 T02011095  RH  013%=      5-min Rain = 0
KHO1 232113Z 25008KT 20/M09 A3003 RMK A01 T02011090  RH  013%=      5-min Rain = 0
KHO1 232114Z 26010KT 20/M09 A3002 RMK A01 T02041088  RH  013%=      5-min Rain = 0
KHO1 232115Z 23011KT 21/M09 A3002 RMK A01 T02051086  RH  013%=      5-min Rain = 0
KHO1 232116Z 23010KT 21/M09 A3002 RMK A01 T02061090  RH  013%=      5-min Rain = 0
KHO1 232117Z 25011KT 21/M09 A3002 RMK A01 T02061088  RH  013%=      5-min Rain = 0
KHO1 232118Z 26013KT 21/M08 A3002 RMK A01 T02101083  RH  013%=      5-min Rain = 0
KHO1 232119Z 26014KT 21/M09 A3002 RMK A01 T02101091  RH  012%=      5-min Rain = 0
KHO1 232120Z 25014KT 21/M09 A3003 RMK A01 T02091091  RH  012%=      5-min Rain = 0
KHO1 232121Z 25012KT 21/M09 A3003 RMK A01 T02071094  RH  012%=      5-min Rain = 0
KHO1 232122Z 26012KT 21/M09 A3002 RMK A01 T02081091  RH  013%=      5-min Rain = 0
KHO1 232123Z 25012KT 21/M09 A3003 RMK A01 T02091091  RH  012%=      5-min Rain = 0
KHO1 232124Z 25009KT 21/M10 A3002 RMK A01 T02071095  RH  012%=      5-min Rain = 0
KHO1 232125Z 26011KT 21/M09 A3002 RMK A01 T02061090  RH  013%=      5-min Rain = 0
KHO1 232126Z 27010KT 21/M10 A3002 RMK A01 T02071096  RH  012%=      5-min Rain = 0
KHO1 232127Z 25009KT 21/M09 A3002 RMK A01 T02051091  RH  013%=      5-min Rain = 0
KHO1 232128Z 23011KT 21/M08 A3002 RMK A01 T02091084  RH  013%=      5-min Rain = 0
KHO1 232129Z 23011KT 21/M09 A3002 RMK A01 T02111086  RH  013%=      5-min Rain = 0
KHO1 232130Z 24010KT 21/M09 A3002 RMK A01 T02111085  RH  013%=      5-min Rain = 0
KHO1 232131Z 24011KT 21/M09 A3003 RMK A01 T02111087  RH  013%=      5-min Rain = 0
KHO1 232132Z 24014KT 21/M09 A3002 RMK A01 T02111088  RH  013%=      5-min Rain = 0
KHO1 232133Z 24014KT 21/M09 A3003 RMK A01 T02101093  RH  012%=      5-min Rain = 0
KHO1 232134Z 24013KT 21/M09 A3003 RMK A01 T02091091  RH  012%=      5-min Rain = 0
KHO1 232135Z 24011KT 21/M10 A3003 RMK A01 T02081096  RH  012%=      5-min Rain = 0
KHO1 232136Z 25011KT 21/M09 A3002 RMK A01 T02081091  RH  012%=      5-min Rain = 0
KHO1 232137Z 25011KT 21/M09 A3003 RMK A01 T02101088  RH  013%=      5-min Rain = 0
KHO1 232138Z 26010KT 21/M09 A3002 RMK A01 T02121088  RH  013%=      5-min Rain = 0
KHO1 232139Z 25013KT 21/M09 A3002 RMK A01 T02121093  RH  012%=      5-min Rain = 0
KHO1 232140Z 25013KT 21/M10 A3002 RMK A01 T02101095  RH  012%=      5-min Rain = 0
KHO1 232141Z 24013KT 21/M10 A3003 RMK A01 T02081096  RH  012%=      5-min Rain = 0
KHO1 232142Z 25012KT 21/M09 A3002 RMK A01 T02091094  RH  012%=      5-min Rain = 0
KHO1 232143Z 25009KT 21/M10 A3002 RMK A01 T02081096  RH  012%=      5-min Rain = 0
KHO1 232144Z 25008KT 21/M10 A3002 RMK A01 T02071096  RH  012%=      5-min Rain = 0
KHO1 232145Z 24010G16KT 21/M09 A3002 RMK A01 T02091091  RH  012%=      5-min Rain = 0
KHO1 232146Z 27014KT 21/M09 A3002 RMK A01 T02121094  RH  012%=      5-min Rain = 0
KHO1 232147Z 26016KT 21/M11 A3002 RMK A01 T02111110  RH  011%=      5-min Rain = 0
KHO1 232148Z 26013KT 21/M10 A3002 RMK A01 T02101099  RH  012%=      5-min Rain = 0
KHO1 232149Z 28011KT 21/M10 A3002 RMK A01 T02091100  RH  012%=      5-min Rain = 0
KHO1 232150Z 28010KT 21/M10 A3002 RMK A01 T02081101  RH  012%=      5-min Rain = 0
KHO1 232151Z 29008KT 21/M10 A3002 RMK A01 T02071102  RH  012%=      5-min Rain = 0
KHO1 232152Z 27011G16KT 21/M09 A3002 RMK A01 T02071094  RH  012%=      5-min Rain = 0
KHO1 232153Z 28014G19KT 21/M10 A3002 RMK A01 T02081102  RH  011%=      5-min Rain = 0
KHO1 232154Z 27012KT 21/M11 A3002 RMK A01 T02071105  RH  011%=      5-min Rain = 0
KHO1 232155Z 26013KT 21/M11 A3002 RMK A01 T02071110  RH  011%=      5-min Rain = 0
KHO1 232156Z 28013KT 21/M12 A3003 RMK A01 T02061115  RH  011%=      5-min Rain = 0
KHO1 232157Z 28011KT 21/M11 A3002 RMK A01 T02071112  RH  011%=      5-min Rain = 0
KHO1 232158Z 29009KT 21/M11 A3002 RMK A01 T02071110  RH  011%=      5-min Rain = 0
KHO1 232159Z 28007KT 21/M11 A3002 RMK A01 T02071105  RH  011%=      5-min Rain = 0
KHO1 232200Z 26007KT 21/M10 A3002 RMK A01 T02091102  RH  011%=      5-min Rain = 0
KHO1 232201Z 26008KT 21/M11 A3002 RMK A01 T02081108  RH  011%=      5-min Rain = 0
KHO1 232202Z 27007KT 21/M10 A3002 RMK A01 T02071104  RH  011%=      5-min Rain = 0
KHO1 232203Z 25009G18KT 21/M10 A3002 RMK A01 T02091102  RH  011%=      5-min Rain = 0
KHO1 232204Z 25013KT 21/M11 A3002 RMK A01 T02091113  RH  010%=      5-min Rain = 0
KHO1 232205Z 25012KT 21/M11 A3002 RMK A01 T02081111  RH  011%=      5-min Rain = 0
KHO1 232206Z 26013KT 21/M11 A3002 RMK A01 T02091107  RH  011%=      5-min Rain = 0
KHO1 232207Z 26009KT 21/M12 A3002 RMK A01 T02081115  RH  010%=      5-min Rain = 0
KHO1 232208Z 25011KT 21/M11 A3002 RMK A01 T02071112  RH  011%=      5-min Rain = 0
KHO1 232209Z 26010KT 21/M11 A3002 RMK A01 T02071110  RH  011%=      5-min Rain = 0
KHO1 232210Z 26011KT 21/M11 A3002 RMK A01 T02081112  RH  011%=      5-min Rain = 0
KHO1 232211Z 25011KT 21/M11 A3002 RMK A01 T02081110  RH  011%=      5-min Rain = 0
KHO1 232212Z 27008KT 21/M11 A3002 RMK A01 T02071111  RH  011%=      5-min Rain = 0
KHO1 232213Z 26009KT 21/M11 A3002 RMK A01 T02071108  RH  011%=      5-min Rain = 0
KHO1 232214Z 25010KT 21/M11 A3002 RMK A01 T02071108  RH  011%=      5-min Rain = 0
KHO1 232215Z 25008KT 21/M11 A3001 RMK A01 T02061108  RH  011%=      5-min Rain = 0
KHO1 232216Z 25007KT 21/M11 A3001 RMK A01 T02061108  RH  011%=      5-min Rain = 0
KHO1 232217Z 26008KT 21/M11 A3001 RMK A01 T02071108  RH  011%=      5-min Rain = 0
KHO1 232218Z 25010KT 21/M10 A3001 RMK A01 T02081104  RH  011%=      5-min Rain = 0
KHO1 232219Z 25012KT 21/M11 A3001 RMK A01 T02091107  RH  011%=      5-min Rain = 0
KHO1 232220Z 23010KT 21/M11 A3001 RMK A01 T02121106  RH  011%=      5-min Rain = 0
KHO1 232221Z 24010G15KT 21/M11 A3001 RMK A01 T02111111  RH  011%=      5-min Rain = 0
KHO1 232222Z 25013KT 21/M11 A3001 RMK A01 T02111110  RH  011%=      5-min Rain = 0
KHO1 232223Z 26011KT 21/M11 A3001 RMK A01 T02121111  RH  010%=      5-min Rain = 0
KHO1 232224Z 26011KT 21/M12 A3001 RMK A01 T02121115  RH  010%=      5-min Rain = 0
KHO1 232225Z 26010KT 21/M11 A3001 RMK A01 T02131111  RH  010%=      5-min Rain = 0
KHO1 232226Z 27010KT 22/M11 A3001 RMK A01 T02151110  RH  010%=      5-min Rain = 0
KHO1 232227Z 27012KT 22/M12 A3001 RMK A01 T02161116  RH  010%=      5-min Rain = 0
KHO1 232228Z 27012KT 22/M12 A3001 RMK A01 T02151116  RH  010%=      5-min Rain = 0
KHO1 232229Z 28010KT 21/M11 A3001 RMK A01 T02141114  RH  010%=      5-min Rain = 0
KHO1 232230Z 28010KT 21/M11 A3001 RMK A01 T02141113  RH  010%=      5-min Rain = 0
KHO1 232231Z 27008KT 21/M11 A3001 RMK A01 T02131112  RH  010%=      5-min Rain = 0
KHO1 232232Z 27010KT 21/M11 A30 RMK A01 T02131107  RH  011%=      5-min Rain = 0
KHO1 232233Z 27008KT 21/M11 A3001 RMK A01 T02131112  RH  010%=      5-min Rain = 0
KHO1 232234Z 26009KT 21/M11 A30 RMK A01 T02121110  RH  011%=      5-min Rain = 0
KHO1 232235Z 24012KT 21/M11 A3001 RMK A01 T02111110  RH  011%=      5-min Rain = 0
KHO1 232236Z 24011KT 21/M11 A3001 RMK A01 T02091114  RH  010%=      5-min Rain = 0
KHO1 232237Z 21007KT 21/M12 A30 RMK A01 T02081115  RH  010%=      5-min Rain = 0
KHO1 232238Z 23006KT 21/M11 A30 RMK A01 T02091106  RH  011%=      5-min Rain = 0
KHO1 232239Z 23007KT 21/M11 A30 RMK A01 T02111106  RH  011%=      5-min Rain = 0
KHO1 232240Z 25006KT 21/M11 A30 RMK A01 T02121106  RH  011%=      5-min Rain = 0
KHO1 232241Z 23008KT 21/M11 A30 RMK A01 T02131105  RH  011%=      5-min Rain = 0
KHO1 232242Z 22009KT 21/M11 A30 RMK A01 T02131106  RH  011%=      5-min Rain = 0
KHO1 232243Z 22009KT 21/M11 A30 RMK A01 T02131107  RH  011%=      5-min Rain = 0
KHO1 232244Z 23006KT 21/M11 A30 RMK A01 T02131106  RH  011%=      5-min Rain = 0
KHO1 232245Z 21009KT 21/M11 A30 RMK A01 T02131105  RH  011%=      5-min Rain = 0
KHO1 232246Z 20009KT 21/M11 A30 RMK A01 T02131106  RH  011%=      5-min Rain = 0
KHO1 232247Z 21008KT 21/M10 A30 RMK A01 T02141102  RH  011%=      5-min Rain = 0
KHO1 232248Z 23009KT 22/M10 A30 RMK A01 T02151100  RH  011%=      5-min Rain = 0
KHO1 232249Z 24011KT 22/M10 A30 RMK A01 T02171101  RH  011%=      5-min Rain = 0
KHO1 232250Z 24011KT 22/M10 A30 RMK A01 T02181098  RH  011%=      5-min Rain = 0
KHO1 232251Z 24011KT 22/M11 A30 RMK A01 T02181105  RH  011%=      5-min Rain = 0
KHO1 232252Z 23010KT 22/M11 A30 RMK A01 T02151105  RH  011%=      5-min Rain = 0
KHO1 232253Z 21013KT 21/M11 A30 RMK A01 T02141110  RH  010%=      5-min Rain = 0
KHO1 232254Z 22013KT 21/M11 A30 RMK A01 T02131111  RH  010%=      5-min Rain = 0
KHO1 232255Z 22012KT 21/M11 A30 RMK A01 T02111108  RH  011%=      5-min Rain = 0
KHO1 232256Z 23010KT 21/M11 A30 RMK A01 T02111108  RH  011%=      5-min Rain = 0
KHO1 232257Z 21011KT 21/M11 A30 RMK A01 T02101109  RH  011%=      5-min Rain = 0
KHO1 232258Z 21012KT 21/M11 A30 RMK A01 T02081109  RH  011%=      5-min Rain = 0
KHO1 232259Z 21012KT 21/M11 A30 RMK A01 T02081109  RH  011%=      5-min Rain = 0
KHO1 232300Z 26010KT 21/M11 A30 RMK A01 T02071111  RH  011%=      5-min Rain = 0
KHO1 232301Z 25009KT 21/M11 A30 RMK A01 T02071113  RH  011%=      5-min Rain = 0
KHO1 232302Z 26011KT 21/M12 A30 RMK A01 T02061116  RH  010%=      5-min Rain = 0
KHO1 232303Z 24010KT 21/M12 A30 RMK A01 T02061117  RH  010%=      5-min Rain = 0
KHO1 232304Z 22010KT 21/M12 A30 RMK A01 T02051118  RH  010%=      5-min Rain = 0
KHO1 232305Z 22009KT 21/M12 A30 RMK A01 T02051119  RH  010%=      5-min Rain = 0
KHO1 232306Z 22008KT 21/M12 A30 RMK A01 T02051117  RH  010%=      5-min Rain = 0
KHO1 232307Z 23007KT 21/M12 A30 RMK A01 T02051117  RH  010%=      5-min Rain = 0
KHO1 232308Z 23007KT 21/M12 A30 RMK A01 T02051115  RH  011%=      5-min Rain = 0
KHO1 232309Z 21006KT 21/M11 A30 RMK A01 T02051112  RH  011%=      5-min Rain = 0
KHO1 232310Z 23011KT 21/M11 A30 RMK A01 T02051112  RH  011%=      5-min Rain = 0
KHO1 232311Z 26010KT 21/M11 A30 RMK A01 T02051114  RH  011%=      5-min Rain = 0
KHO1 232312Z 24009KT 21/M11 A30 RMK A01 T02051112  RH  011%=      5-min Rain = 0
KHO1 232313Z 24008KT 21/M11 A30 RMK A01 T02061112  RH  011%=      5-min Rain = 0
KHO1 232314Z 23007KT 21/M11 A30 RMK A01 T02071108  RH  011%=      5-min Rain = 0
KHO1 232315Z 23008KT 21/M11 A30 RMK A01 T02101105  RH  011%=      5-min Rain = 0
KHO1 232316Z 23007KT 21/M11 A30 RMK A01 T02111105  RH  011%=      5-min Rain = 0
KHO1 232317Z 22008KT 21/M10 A30 RMK A01 T02121103  RH  011%=      5-min Rain = 0
KHO1 232318Z 22010KT 21/M11 A30 RMK A01 T02121108  RH  011%=      5-min Rain = 0
KHO1 232319Z 23010KT 21/M11 A30 RMK A01 T02101109  RH  011%=      5-min Rain = 0
KHO1 232320Z 24010KT 21/M11 A30 RMK A01 T02101108  RH  011%=      5-min Rain = 0
KHO1 232321Z 24012KT 21/M11 A30 RMK A01 T02091114  RH  010%=      5-min Rain = 0
KHO1 232322Z 24011KT 21/M11 A30 RMK A01 T02081113  RH  011%=      5-min Rain = 0
KHO1 232323Z 25011KT 21/M11 A2999 RMK A01 T02081112  RH  011%=      5-min Rain = 0
KHO1 232324Z 24008KT 21/M11 A2999 RMK A01 T02081108  RH  011%=      5-min Rain = 0
KHO1 232325Z 23009KT 21/M11 A30 RMK A01 T02081111  RH  011%=      5-min Rain = 0
KHO1 232326Z 24011KT 21/M11 A2999 RMK A01 T02081110  RH  011%=      5-min Rain = 0
KHO1 232327Z 24012KT 21/M11 A30 RMK A01 T02081109  RH  011%=      5-min Rain = 0
KHO1 232328Z 24013KT 21/M11 A2999 RMK A01 T02081106  RH  011%=      5-min Rain = 0
KHO1 232329Z 23011KT 21/M11 A30 RMK A01 T02091107  RH  011%=      5-min Rain = 0
KHO1 232330Z 23011KT 21/M11 A30 RMK A01 T02091107  RH  011%=      5-min Rain = 0
KHO1 232331Z 23012KT 21/M11 A30 RMK A01 T02091112  RH  011%=      5-min Rain = 0
KHO1 232332Z 23012KT 21/M11 A30 RMK A01 T02091113  RH  010%=      5-min Rain = 0
KHO1 232333Z 23008KT 21/M12 A30 RMK A01 T02091115  RH  010%=      5-min Rain = 0
KHO1 232334Z 24009KT 21/M11 A30 RMK A01 T02091111  RH  011%=      5-min Rain = 0
KHO1 232335Z 23012KT 21/M11 A30 RMK A01 T02091111  RH  011%=      5-min Rain = 0
KHO1 232336Z 21012KT 21/M12 A30 RMK A01 T02081121  RH  010%=      5-min Rain = 0
KHO1 232337Z 22011KT 21/M12 A30 RMK A01 T02081118  RH  010%=      5-min Rain = 0
KHO1 232338Z 22011G16KT 21/M12 A30 RMK A01 T02081118  RH  010%=      5-min Rain = 0
KHO1 232339Z 21011KT 21/M12 A30 RMK A01 T02091120  RH  010%=      5-min Rain = 0
KHO1 232340Z 22010KT 21/M12 A30 RMK A01 T02091115  RH  010%=      5-min Rain = 0
KHO1 232341Z 22010KT 21/M12 A30 RMK A01 T02091120  RH  010%=      5-min Rain = 0
KHO1 232342Z 23010KT 21/M12 A30 RMK A01 T02081116  RH  010%=      5-min Rain = 0
KHO1 232343Z 23010KT 21/M12 A30 RMK A01 T02081115  RH  010%=      5-min Rain = 0
KHO1 232344Z 23010KT 21/M12 A30 RMK A01 T02081115  RH  010%=      5-min Rain = 0
KHO1 232345Z 23010KT 21/M12 A30 RMK A01 T02081115  RH  010%=      5-min Rain = 0
KHO1 232346Z 22011KT 21/M12 A2999 RMK A01 T02091117  RH  010%=      5-min Rain = 0
KHO1 232347Z 22012KT 21/M12 A2999 RMK A01 T02081122  RH  010%=      5-min Rain = 0
KHO1 232348Z 22010KT 21/M12 A2999 RMK A01 T02091118  RH  010%=      5-min Rain = 0
KHO1 232349Z 22010KT 21/M12 A2999 RMK A01 T02101120  RH  010%=      5-min Rain = 0
KHO1 232350Z 22011KT 21/M12 A30 RMK A01 T02101121  RH  010%=      5-min Rain = 0
KHO1 232351Z 22009KT 21/M12 A2999 RMK A01 T02101118  RH  010%=      5-min Rain = 0
KHO1 232352Z 23010KT 21/M12 A30 RMK A01 T02101120  RH  010%=      5-min Rain = 0
KHO1 232353Z 23010KT 21/M12 A30 RMK A01 T02101116  RH  010%=      5-min Rain = 0
KHO1 232354Z 23011KT 21/M12 A30 RMK A01 T02101116  RH  010%=      5-min Rain = 0
KHO1 232355Z 23011KT 21/M12 A30 RMK A01 T02101115  RH  010%=      5-min Rain = 0
KHO1 232356Z 23011KT 21/M11 A30 RMK A01 T02101111  RH  011%=      5-min Rain = 0
KHO1 232357Z 23013KT 21/M11 A30 RMK A01 T02101110  RH  011%=      5-min Rain = 0
KHO1 232358Z 23011KT 21/M11 A30 RMK A01 T02081110  RH  011%=      5-min Rain = 0
KHO1 232359Z 23011KT 21/M11 A30 RMK A01 T02081110  RH  011%=      5-min Rain = 0
KHO1 240000Z 23010KT 21/M11 A30 RMK A01 T02061113  RH  011%=      5-min Rain = 0
KHO1 240001Z 25010KT 21/M11 A30 RMK A01 T02061110  RH  011%=      5-min Rain = 0
KHO1 240002Z 24010KT 21/M11 A30 RMK A01 T02051109  RH  011%=      5-min Rain = 0
KHO1 240003Z 24011KT 21/M11 A30 RMK A01 T02051110  RH  011%=      5-min Rain = 0
KHO1 240004Z 24009KT 21/M11 A30 RMK A01 T02051110  RH  011%=      5-min Rain = 0
KHO1 240005Z 24009KT 20/M11 A30 RMK A01 T02041107  RH  011%=      5-min Rain = 0
KHO1 240006Z 23008KT 20/M11 A30 RMK A01 T02041109  RH  011%=      5-min Rain = 0
KHO1 240007Z 24009KT 20/M11 A30 RMK A01 T02041108  RH  011%=      5-min Rain = 0
KHO1 240008Z 24008KT 20/M11 A30 RMK A01 T02031105  RH  012%=      5-min Rain = 0
KHO1 240009Z 24010KT 20/M11 A30 RMK A01 T02021109  RH  011%=      5-min Rain = 0
KHO1 240010Z 24009KT 20/M11 A30 RMK A01 T02021109  RH  011%=      5-min Rain = 0
KHO1 240011Z 24009KT 20/M11 A30 RMK A01 T02011111  RH  011%=      5-min Rain = 0
KHO1 240012Z 24009KT 20/M11 A30 RMK A01 T02011109  RH  011%=      5-min Rain = 0
KHO1 240013Z 24008KT 20/M11 A30 RMK A01 T02001110  RH  011%=      5-min Rain = 0
KHO1 240014Z 24008KT 20/M11 A30 RMK A01 T01991107  RH  012%=      5-min Rain = 0
KHO1 240015Z 23008KT 20/M11 A30 RMK A01 T01981105  RH  012%=      5-min Rain = 0
KHO1 240016Z 23007KT 20/M11 A30 RMK A01 T01971106  RH  012%=      5-min Rain = 0
KHO1 240017Z 22008KT 20/M11 A30 RMK A01 T01971108  RH  012%=      5-min Rain = 0
KHO1 240018Z 23006KT 20/M11 A30 RMK A01 T01961105  RH  012%=      5-min Rain = 0
KHO1 240019Z 23007KT 20/M11 A30 RMK A01 T01951105  RH  012%=      5-min Rain = 0
KHO1 240020Z 23006KT 19/M10 A30 RMK A01 T01941103  RH  012%=      5-min Rain = 0
KHO1 240021Z 23006KT 19/M10 A30 RMK A01 T01941104  RH  012%=      5-min Rain = 0
KHO1 240022Z 23007KT 19/M10 A30 RMK A01 T01941104  RH  012%=      5-min Rain = 0
KHO1 240023Z 23007KT 20/M11 A30 RMK A01 T01951109  RH  012%=      5-min Rain = 0
KHO1 240024Z 22006KT 20/M11 A30 RMK A01 T01961112  RH  011%=      5-min Rain = 0
KHO1 240025Z 23006KT 20/M11 A30 RMK A01 T01971109  RH  012%=      5-min Rain = 0
KHO1 240026Z 22006KT 20/M11 A30 RMK A01 T01971108  RH  012%=      5-min Rain = 0
KHO1 240027Z 22006KT 20/M11 A30 RMK A01 T01971113  RH  011%=      5-min Rain = 0
KHO1 240028Z 22006KT 20/M11 A30 RMK A01 T01981114  RH  011%=      5-min Rain = 0
KHO1 240029Z 22006KT 20/M11 A30 RMK A01 T01991113  RH  011%=      5-min Rain = 0
KHO1 240030Z 22004KT 20/M11 A30 RMK A01 T01991109  RH  011%=      5-min Rain = 0
KHO1 240031Z 22005KT 20/M11 A30 RMK A01 T01991109  RH  012%=      5-min Rain = 0
KHO1 240032Z 22005KT 20/M11 A30 RMK A01 T01991109  RH  011%=      5-min Rain = 0
KHO1 240033Z 23005KT 20/M11 A30 RMK A01 T01991107  RH  012%=      5-min Rain = 0
KHO1 240034Z 23005KT 20/M11 A30 RMK A01 T01991112  RH  011%=      5-min Rain = 0
KHO1 240035Z 23005KT 20/M11 A30 RMK A01 T01991110  RH  011%=      5-min Rain = 0
KHO1 240036Z 23006KT 20/M11 A30 RMK A01 T01991108  RH  012%=      5-min Rain = 0
KHO1 240037Z 23005KT 20/M11 A30 RMK A01 T01981105  RH  012%=      5-min Rain = 0
KHO1 240038Z 23005KT 20/M11 A30 RMK A01 T01981106  RH  012%=      5-min Rain = 0
KHO1 240039Z 22005KT 20/M11 A30 RMK A01 T01981106  RH  012%=      5-min Rain = 0
KHO1 240040Z 22004KT 20/M11 A30 RMK A01 T01971105  RH  012%=      5-min Rain = 0
KHO1 240041Z 23005KT 20/M11 A30 RMK A01 T01971107  RH  012%=      5-min Rain = 0
KHO1 240042Z 22005KT 20/M11 A30 RMK A01 T01971105  RH  012%=      5-min Rain = 0
KHO1 240043Z 22006KT 20/M11 A30 RMK A01 T01961105  RH  012%=      5-min Rain = 0
KHO1 240044Z 22005KT 20/M11 A30 RMK A01 T01961106  RH  012%=      5-min Rain = 0
KHO1 240045Z 22005KT 20/M11 A30 RMK A01 T01951105  RH  012%=      5-min Rain = 0
KHO1 240046Z 22005KT 20/M11 A30 RMK A01 T01951105  RH  012%=      5-min Rain = 0
KHO1 240047Z 22005KT 19/M11 A30 RMK A01 T01941107  RH  012%=      5-min Rain = 0
KHO1 240048Z 22004KT 19/M11 A30 RMK A01 T01941105  RH  012%=      5-min Rain = 0
KHO1 240049Z 22005KT 19/M10 A30 RMK A01 T01931104  RH  012%=      5-min Rain = 0
KHO1 240050Z 22005KT 19/M10 A30 RMK A01 T01921104  RH  013%=      5-min Rain = 0
KHO1 240051Z 22005KT 19/M10 A30 RMK A01 T01911102  RH  013%=      5-min Rain = 0
KHO1 240052Z 22004KT 19/M10 A30 RMK A01 T01901103  RH  013%=      5-min Rain = 0
KHO1 240053Z 22004KT 19/M10 A30 RMK A01 T01901102  RH  013%=      5-min Rain = 0
KHO1 240054Z 22004KT 19/M10 A30 RMK A01 T01891102  RH  013%=      5-min Rain = 0
KHO1 240055Z 21004KT 19/M10 A30 RMK A01 T01871100  RH  013%=      5-min Rain = 0
KHO1 240056Z 21005KT 19/M10 A30 RMK A01 T01861100  RH  013%=      5-min Rain = 0
KHO1 240057Z 21005KT 19/M10 A30 RMK A01 T01851101  RH  013%=      5-min Rain = 0
KHO1 240058Z 21005KT 18/M10 A30 RMK A01 T01841101  RH  013%=      5-min Rain = 0
KHO1 240059Z 20005KT 18/M10 A30 RMK A01 T01831100  RH  014%=      5-min Rain = 0
KHO1 240100Z 20005KT 18/M10 A30 RMK A01 T01821100  RH  014%=      5-min Rain = 0
KHO1 240101Z 20005KT 18/M10 A30 RMK A01 T01801100  RH  014%=      5-min Rain = 0
KHO1 240102Z 20005KT 18/M10 A30 RMK A01 T01781099  RH  014%=      5-min Rain = 0
KHO1 240103Z 20005KT 18/M10 A3001 RMK A01 T01761099  RH  014%=      5-min Rain = 0
KHO1 240104Z 20006KT 18/M10 A30 RMK A01 T01751098  RH  015%=      5-min Rain = 0
KHO1 240105Z 20006KT 17/M10 A30 RMK A01 T01741098  RH  015%=      5-min Rain = 0
KHO1 240106Z 20005KT 17/M10 A30 RMK A01 T01741097  RH  015%=      5-min Rain = 0
KHO1 240107Z 20005KT 17/M10 A30 RMK A01 T01731095  RH  015%=      5-min Rain = 0
KHO1 240108Z 20005KT 17/M10 A30 RMK A01 T01721096  RH  015%=      5-min Rain = 0
KHO1 240109Z 20005KT 17/M10 A30 RMK A01 T01721096  RH  015%=      5-min Rain = 0
KHO1 240110Z 20005KT 17/M10 A3001 RMK A01 T01721096  RH  015%=      5-min Rain = 0
KHO1 240111Z 20005KT 17/M10 A3001 RMK A01 T01711097  RH  015%=      5-min Rain = 0
KHO1 240112Z 20005KT 17/M09 A3001 RMK A01 T01691093  RH  016%=      5-min Rain = 0
KHO1 240113Z 20005KT 17/M09 A3001 RMK A01 T01681091  RH  016%=      5-min Rain = 0
KHO1 240114Z 20005KT 17/M09 A3001 RMK A01 T01661092  RH  016%=      5-min Rain = 0
KHO1 240115Z 20005KT 17/M09 A3001 RMK A01 T01661089  RH  017%=      5-min Rain = 0
KHO1 240116Z 19005KT 17/M09 A3001 RMK A01 T01651089  RH  017%=      5-min Rain = 0
KHO1 240117Z 20005KT 16/M09 A3001 RMK A01 T01641088  RH  017%=      5-min Rain = 0
KHO1 240118Z 19005KT 17/M09 A3001 RMK A01 T01651089  RH  017%=      5-min Rain = 0
KHO1 240119Z 19006KT 17/M09 A3001 RMK A01 T01651090  RH  017%=      5-min Rain = 0
KHO1 240120Z 19006KT 17/M09 A3001 RMK A01 T01651090  RH  017%=      5-min Rain = 0
KHO1 240121Z 19006KT 16/M09 A3001 RMK A01 T01641090  RH  017%=      5-min Rain = 0
KHO1 240122Z 19005KT 16/M09 A3001 RMK A01 T01631090  RH  017%=      5-min Rain = 0
KHO1 240123Z 19005KT 16/M09 A3001 RMK A01 T01621087  RH  017%=      5-min Rain = 0
KHO1 240124Z 19005KT 16/M09 A3001 RMK A01 T01601087  RH  018%=      5-min Rain = 0
KHO1 240125Z 19005KT 16/M09 A3001 RMK A01 T01601087  RH  018%=      5-min Rain = 0
KHO1 240126Z 18005KT 16/M09 A3001 RMK A01 T01591087  RH  018%=      5-min Rain = 0
KHO1 240127Z 19005KT 16/M09 A3001 RMK A01 T01591086  RH  018%=      5-min Rain = 0
KHO1 240128Z 19004KT 16/M09 A3001 RMK A01 T01581086  RH  018%=      5-min Rain = 0
KHO1 240129Z 19004KT 16/M09 A3001 RMK A01 T01571086  RH  018%=      5-min Rain = 0
KHO1 240130Z 19004KT 16/M09 A3001 RMK A01 T01571088  RH  018%=      5-min Rain = 0
KHO1 240131Z 19003KT 16/M09 A3001 RMK A01 T01561086  RH  018%=      5-min Rain = 0
KHO1 240132Z 19003KT 16/M09 A3001 RMK A01 T01561085  RH  018%=      5-min Rain = 0
KHO1 240133Z 19003KT 16/M09 A3001 RMK A01 T01551085  RH  018%=      5-min Rain = 0
KHO1 240134Z 19003KT 16/M09 A3001 RMK A01 T01551086  RH  018%=      5-min Rain = 0
KHO1 240135Z 19003KT 15/M09 A3001 RMK A01 T01541086  RH  018%=      5-min Rain = 0
KHO1 240136Z 19003KT 16/M09 A3001 RMK A01 T01551087  RH  018%=      5-min Rain = 0
KHO1 240137Z 19003KT 16/M09 A3001 RMK A01 T01551087  RH  018%=      5-min Rain = 0
KHO1 240138Z 20003KT 16/M09 A3001 RMK A01 T01551088  RH  018%=      5-min Rain = 0
KHO1 240139Z 20003KT 16/M09 A3001 RMK A01 T01551088  RH  018%=      5-min Rain = 0
KHO1 240140Z 20003KT 16/M09 A3001 RMK A01 T01561090  RH  018%=      5-min Rain = 0
KHO1 240141Z 20003KT 16/M09 A3001 RMK A01 T01571091  RH  017%=      5-min Rain = 0
KHO1 240142Z 20003KT 16/M09 A3001 RMK A01 T01581092  RH  017%=      5-min Rain = 0
KHO1 240143Z 20003KT 16/M09 A3001 RMK A01 T01581092  RH  017%=      5-min Rain = 0
KHO1 240144Z 20003KT 16/M09 A3001 RMK A01 T01591094  RH  017%=      5-min Rain = 0
KHO1 240145Z 20003KT 16/M09 A3001 RMK A01 T01601094  RH  017%=      5-min Rain = 0
KHO1 240146Z 20003KT 16/M10 A3002 RMK A01 T01601095  RH  016%=      5-min Rain = 0
KHO1 240147Z 20003KT 16/M10 A3002 RMK A01 T01611095  RH  016%=      5-min Rain = 0
KHO1 240148Z 20003KT 16/M09 A3002 RMK A01 T01611094  RH  016%=      5-min Rain = 0
KHO1 240149Z 20003KT 16/M09 A3001 RMK A01 T01601094  RH  017%=      5-min Rain = 0
KHO1 240150Z 20003KT 16/M10 A3002 RMK A01 T01601095  RH  016%=      5-min Rain = 0
KHO1 240151Z 20003KT 16/M10 A3002 RMK A01 T01601095  RH  016%=      5-min Rain = 0
KHO1 240152Z 21003KT 16/M10 A3002 RMK A01 T01601095  RH  016%=      5-min Rain = 0
KHO1 240153Z 21003KT 16/M09 A3002 RMK A01 T01601091  RH  017%=      5-min Rain = 0
KHO1 240154Z 21002KT 16/M08 A3002 RMK A01 T01581080  RH  019%=      5-min Rain = 0
KHO1 240155Z 21000KT 16/M08 A3002 RMK A01 T01561080  RH  019%=      5-min Rain = 0
KHO1 240156Z 00000KT 15/M08 A3002 RMK A01 T01531080  RH  019%=      5-min Rain = 0
KHO1 240157Z 21000KT 15/M08 A3002 RMK A01 T01511082  RH  019%=      5-min Rain = 0
KHO1 240158Z 21001KT 15/M09 A3002 RMK A01 T01511088  RH  018%=      5-min Rain = 0
KHO1 240159Z 21002KT 15/M09 A3002 RMK A01 T01511092  RH  018%=      5-min Rain = 0
KHO1 240200Z 21001KT 15/M09 A3002 RMK A01 T01531092  RH  018%=      5-min Rain = 0
KHO1 240201Z 26001KT 15/M08 A3002 RMK A01 T01531083  RH  019%=      5-min Rain = 0
KHO1 240202Z 29004KT 15/M08 A3002 RMK A01 T01511075  RH  020%=      5-min Rain = 0
KHO1 240203Z 27003KT 15/M08 A3002 RMK A01 T01501079  RH  020%=      5-min Rain = 0
KHO1 240204Z 27004KT 15/M08 A3002 RMK A01 T01491079  RH  020%=      5-min Rain = 0
KHO1 240205Z 26005KT 15/M08 A3002 RMK A01 T01471078  RH  020%=      5-min Rain = 0
KHO1 240206Z 26005KT 15/M08 A3002 RMK A01 T01461079  RH  020%=      5-min Rain = 0
KHO1 240207Z 25005KT 15/M08 A3002 RMK A01 T01451081  RH  020%=      5-min Rain = 0
KHO1 240208Z 25004KT 14/M08 A3002 RMK A01 T01441082  RH  020%=      5-min Rain = 0
KHO1 240209Z 24004KT 14/M09 A3003 RMK A01 T01441085  RH  020%=      5-min Rain = 0
KHO1 240210Z 24004KT 14/M09 A3003 RMK A01 T01441085  RH  020%=      5-min Rain = 0
KHO1 240211Z 24004KT 14/M08 A3003 RMK A01 T01431081  RH  020%=      5-min Rain = 0
KHO1 240212Z 23004KT 14/M08 A3003 RMK A01 T01421082  RH  020%=      5-min Rain = 0
KHO1 240213Z 23004KT 14/M08 A3003 RMK A01 T01411082  RH  020%=      5-min Rain = 0
KHO1 240214Z 22004KT 14/M08 A3003 RMK A01 T01401079  RH  021%=      5-min Rain = 0
KHO1 240215Z 22004KT 14/M08 A3003 RMK A01 T01381076  RH  022%=      5-min Rain = 0
KHO1 240216Z 22004KT 13/M07 A3003 RMK A01 T01341073  RH  023%=      5-min Rain = 0
KHO1 240217Z 22003KT 13/M08 A3003 RMK A01 T01311075  RH  023%=      5-min Rain = 0
KHO1 240218Z 22003KT 13/M08 A3003 RMK A01 T01291077  RH  023%=      5-min Rain = 0
KHO1 240219Z 23003KT 13/M07 A3003 RMK A01 T01291074  RH  024%=      5-min Rain = 0
KHO1 240220Z 23003KT 13/M08 A3003 RMK A01 T01281075  RH  024%=      5-min Rain = 0
KHO1 240221Z 24003KT 13/M08 A3003 RMK A01 T01271076  RH  024%=      5-min Rain = 0
KHO1 240222Z 24003KT 13/M07 A3003 RMK A01 T01291073  RH  024%=      5-min Rain = 0
KHO1 240223Z 23003KT 13/M08 A3003 RMK A01 T01291075  RH  023%=      5-min Rain = 0
KHO1 240224Z 24003KT 13/M08 A3003 RMK A01 T01301075  RH  023%=      5-min Rain = 0
KHO1 240225Z 25003KT 13/M08 A3003 RMK A01 T01301076  RH  023%=      5-min Rain = 0
KHO1 240226Z 25004KT 13/M08 A3003 RMK A01 T01311076  RH  023%=      5-min Rain = 0
KHO1 240227Z 24004KT 13/M08 A3003 RMK A01 T01321078  RH  022%=      5-min Rain = 0
KHO1 240228Z 24004KT 13/M08 A3003 RMK A01 T01331080  RH  022%=      5-min Rain = 0
KHO1 240229Z 23005KT 13/M08 A3003 RMK A01 T01341082  RH  021%=      5-min Rain = 0
KHO1 240230Z 24004KT 14/M08 A3003 RMK A01 T01351081  RH  021%=      5-min Rain = 0
KHO1 240231Z 23004KT 14/M08 A3003 RMK A01 T01351083  RH  021%=      5-min Rain = 0
KHO1 240232Z 23004KT 14/M08 A3003 RMK A01 T01351082  RH  021%=      5-min Rain = 0
KHO1 240233Z 22004KT 13/M08 A3003 RMK A01 T01341080  RH  022%=      5-min Rain = 0
KHO1 240234Z 22004KT 13/M08 A3003 RMK A01 T01321078  RH  023%=      5-min Rain = 0
KHO1 240235Z 22004KT 13/M08 A3003 RMK A01 T01291078  RH  023%=      5-min Rain = 0
KHO1 240236Z 22004KT 13/M08 A3003 RMK A01 T01281078  RH  023%=      5-min Rain = 0
KHO1 240237Z 21004KT 13/M08 A3003 RMK A01 T01261078  RH  023%=      5-min Rain = 0
KHO1 240238Z 20004KT 13/M08 A3003 RMK A01 T01261076  RH  024%=      5-min Rain = 0
KHO1 240239Z 19004KT 13/M07 A3003 RMK A01 T01261071  RH  025%=      5-min Rain = 0
KHO1 240240Z 18004KT 13/M07 A3003 RMK A01 T01251072  RH  025%=      5-min Rain = 0
KHO1 240241Z 18005KT 13/M07 A3003 RMK A01 T01251071  RH  025%=      5-min Rain = 0
KHO1 240242Z 18005KT 12/M07 A3003 RMK A01 T01231069  RH  026%=      5-min Rain = 0
KHO1 240243Z 17005KT 12/M07 A3003 RMK A01 T01191065  RH  027%=      5-min Rain = 0
KHO1 240244Z 18006KT 12/M06 A3003 RMK A01 T01151063  RH  028%=      5-min Rain = 0
KHO1 240245Z 18006KT 11/M07 A3003 RMK A01 T01131066  RH  028%=      5-min Rain = 0
KHO1 240246Z 18006KT 11/M06 A3003 RMK A01 T01141063  RH  028%=      5-min Rain = 0
KHO1 240247Z 18006KT 12/M07 A3003 RMK A01 T01151068  RH  027%=      5-min Rain = 0
KHO1 240248Z 18006KT 12/M07 A3003 RMK A01 T01181070  RH  026%=      5-min Rain = 0
KHO1 240249Z 19006KT 12/M07 A3003 RMK A01 T01201070  RH  026%=      5-min Rain = 0
KHO1 240250Z 19006KT 12/M07 A3004 RMK A01 T01211071  RH  025%=      5-min Rain = 0
KHO1 240251Z 19005KT 12/M07 A3004 RMK A01 T01211071  RH  025%=      5-min Rain = 0
KHO1 240252Z 18006KT 12/M07 A3004 RMK A01 T01211071  RH  025%=      5-min Rain = 0
KHO1 240253Z 18006KT 12/M07 A3004 RMK A01 T01211071  RH  026%=      5-min Rain = 0
KHO1 240254Z 18007KT 12/M07 A3004 RMK A01 T01211070  RH  026%=      5-min Rain = 0
KHO1 240255Z 18006KT 12/M07 A3004 RMK A01 T01201071  RH  026%=      5-min Rain = 0
KHO1 240256Z 19005KT 12/M07 A3004 RMK A01 T01201071  RH  026%=      5-min Rain = 0
KHO1 240257Z 19006KT 12/M07 A3004 RMK A01 T01201071  RH  026%=      5-min Rain = 0
KHO1 240258Z 20005KT 12/M07 A3004 RMK A01 T01191071  RH  026%=      5-min Rain = 0
KHO1 240259Z 21006KT 12/M07 A3004 RMK A01 T01191070  RH  026%=      5-min Rain = 0
KHO1 240300Z 21005KT 12/M07 A3004 RMK A01 T01181070  RH  026%=      5-min Rain = 0
KHO1 240301Z 21005KT 12/M07 A3004 RMK A01 T01191072  RH  026%=      5-min Rain = 0
KHO1 240302Z 21005KT 12/M07 A3004 RMK A01 T01191072  RH  026%=      5-min Rain = 0
KHO1 240303Z 21006KT 12/M07 A3004 RMK A01 T01201072  RH  025%=      5-min Rain = 0
KHO1 240304Z 22006KT 12/M07 A3004 RMK A01 T01211073  RH  025%=      5-min Rain = 0
KHO1 240305Z 22006KT 12/M07 A3004 RMK A01 T01221074  RH  025%=      5-min Rain = 0
KHO1 240306Z 22006KT 12/M08 A3004 RMK A01 T01231075  RH  024%=      5-min Rain = 0
KHO1 240307Z 23005KT 12/M08 A3004 RMK A01 T01241076  RH  024%=      5-min Rain = 0
KHO1 240308Z 23005KT 13/M08 A3004 RMK A01 T01251078  RH  024%=      5-min Rain = 0
KHO1 240309Z 23005KT 13/M08 A3004 RMK A01 T01271080  RH  023%=      5-min Rain = 0
KHO1 240310Z 23005KT 13/M08 A3004 RMK A01 T01271081  RH  023%=      5-min Rain = 0
KHO1 240311Z 23004KT 13/M08 A3004 RMK A01 T01281080  RH  023%=      5-min Rain = 0
KHO1 240312Z 23004KT 13/M08 A3004 RMK A01 T01281080  RH  023%=      5-min Rain = 0
KHO1 240313Z 23004KT 13/M08 A3004 RMK A01 T01291079  RH  023%=      5-min Rain = 0
KHO1 240314Z 22004KT 13/M08 A3004 RMK A01 T01281078  RH  023%=      5-min Rain = 0
KHO1 240315Z 22004KT 13/M08 A3004 RMK A01 T01271076  RH  023%=      5-min Rain = 0
KHO1 240316Z 22004KT 13/M08 A3004 RMK A01 T01261075  RH  024%=      5-min Rain = 0
KHO1 240317Z 22004KT 13/M08 A3004 RMK A01 T01251077  RH  024%=      5-min Rain = 0
KHO1 240318Z 22004KT 13/M08 A3005 RMK A01 T01251078  RH  024%=      5-min Rain = 0
KHO1 240319Z 22004KT 13/M08 A3005 RMK A01 T01251078  RH  024%=      5-min Rain = 0
KHO1 240320Z 22004KT 12/M08 A3005 RMK A01 T01241077  RH  024%=      5-min Rain = 0
KHO1 240321Z 22004KT 12/M08 A3005 RMK A01 T01231076  RH  024%=      5-min Rain = 0
KHO1 240322Z 22004KT 12/M08 A3005 RMK A01 T01221077  RH  024%=      5-min Rain = 0
KHO1 240323Z 21003KT 12/M08 A3005 RMK A01 T01221077  RH  024%=      5-min Rain = 0
KHO1 240324Z 20003KT 12/M08 A3005 RMK A01 T01211075  RH  025%=      5-min Rain = 0
KHO1 240325Z 19003KT 12/M08 A3005 RMK A01 T01191076  RH  025%=      5-min Rain = 0
KHO1 240326Z 20004KT 12/M08 A3005 RMK A01 T01181077  RH  025%=      5-min Rain = 0
KHO1 240327Z 20005KT 12/M08 A3005 RMK A01 T01171075  RH  025%=      5-min Rain = 0
KHO1 240328Z 20005KT 12/M07 A3005 RMK A01 T01161074  RH  026%=      5-min Rain = 0
KHO1 240329Z 20005KT 11/M07 A3005 RMK A01 T01131070  RH  027%=      5-min Rain = 0
KHO1 240330Z 20006KT 11/M07 A3005 RMK A01 T01111068  RH  028%=      5-min Rain = 0
KHO1 240331Z 20005KT 11/M07 A3005 RMK A01 T01091070  RH  028%=      5-min Rain = 0
KHO1 240332Z 21005KT 11/M07 A3005 RMK A01 T01101070  RH  028%=      5-min Rain = 0
KHO1 240333Z 22005KT 11/M07 A3005 RMK A01 T01101070  RH  027%=      5-min Rain = 0
KHO1 240334Z 22004KT 11/M07 A3005 RMK A01 T01101071  RH  027%=      5-min Rain = 0
KHO1 240335Z 22005KT 11/M08 A3005 RMK A01 T01111075  RH  026%=      5-min Rain = 0
KHO1 240336Z 23005KT 11/M08 A3006 RMK A01 T01141077  RH  026%=      5-min Rain = 0
KHO1 240337Z 23004KT 12/M08 A3006 RMK A01 T01151075  RH  026%=      5-min Rain = 0
KHO1 240338Z 23004KT 12/M08 A3005 RMK A01 T01151076  RH  025%=      5-min Rain = 0
KHO1 240339Z 24004KT 12/M08 A3006 RMK A01 T01151075  RH  026%=      5-min Rain = 0
KHO1 240340Z 24003KT 12/M07 A3006 RMK A01 T01151074  RH  026%=      5-min Rain = 0
KHO1 240341Z 24004KT 12/M07 A3006 RMK A01 T01151074  RH  026%=      5-min Rain = 0
KHO1 240342Z 24004KT 12/M07 A3006 RMK A01 T01151074  RH  026%=      5-min Rain = 0
KHO1 240343Z 23004KT 12/M07 A3006 RMK A01 T01161074  RH  026%=      5-min Rain = 0
KHO1 240344Z 23004KT 12/M07 A3006 RMK A01 T01161074  RH  026%=      5-min Rain = 0
KHO1 240345Z 23005KT 12/M07 A3006 RMK A01 T01161074  RH  026%=      5-min Rain = 0
KHO1 240346Z 23005KT 12/M07 A3006 RMK A01 T01161074  RH  026%=      5-min Rain = 0
KHO1 240347Z 23005KT 12/M08 A3006 RMK A01 T01151075  RH  026%=      5-min Rain = 0
KHO1 240348Z 23005KT 12/M07 A3006 RMK A01 T01151074  RH  026%=      5-min Rain = 0
KHO1 240349Z 23005KT 11/M07 A3006 RMK A01 T01141073  RH  026%=      5-min Rain = 0
KHO1 240350Z 23005KT 11/M07 A3006 RMK A01 T01131072  RH  027%=      5-min Rain = 0
KHO1 240351Z 23005KT 11/M07 A3006 RMK A01 T01121072  RH  027%=      5-min Rain = 0
KHO1 240352Z 23005KT 11/M07 A3006 RMK A01 T01121073  RH  027%=      5-min Rain = 0
KHO1 240353Z 22005KT 11/M07 A3006 RMK A01 T01121072  RH  027%=      5-min Rain = 0
KHO1 240354Z 22005KT 11/M07 A3006 RMK A01 T01121074  RH  026%=      5-min Rain = 0
KHO1 240355Z 22004KT 11/M08 A3006 RMK A01 T01121075  RH  026%=      5-min Rain = 0
KHO1 240356Z 21004KT 11/M08 A3006 RMK A01 T01121075  RH  026%=      5-min Rain = 0
KHO1 240357Z 20004KT 11/M07 A3006 RMK A01 T01121074  RH  026%=      5-min Rain = 0
KHO1 240358Z 20004KT 11/M08 A3006 RMK A01 T01111075  RH  026%=      5-min Rain = 0
KHO1 240359Z 20003KT 11/M07 A3006 RMK A01 T01111073  RH  027%=      5-min Rain = 0
KHO1 240400Z 20004KT 11/M07 A3006 RMK A01 T01091072  RH  027%=      5-min Rain = 0
KHO1 240401Z 20005KT 11/M07 A3006 RMK A01 T01081071  RH  028%=      5-min Rain = 0
KHO1 240402Z 20005KT 11/M07 A3006 RMK A01 T01061070  RH  028%=      5-min Rain = 0
KHO1 240403Z 21005KT 11/M07 A3006 RMK A01 T01051069  RH  029%=      5-min Rain = 0
KHO1 240404Z 21005KT 10/M07 A3006 RMK A01 T01041067  RH  029%=      5-min Rain = 0
KHO1 240405Z 20005KT 10/M07 A3006 RMK A01 T01031066  RH  030%=      5-min Rain = 0
KHO1 240406Z 21006KT 10/M07 A3006 RMK A01 T01021067  RH  030%=      5-min Rain = 0
KHO1 240407Z 21006KT 10/M07 A3005 RMK A01 T01031068  RH  029%=      5-min Rain = 0
KHO1 240408Z 21006KT 11/M07 A3006 RMK A01 T01051070  RH  029%=      5-min Rain = 0
KHO1 240409Z 21006KT 11/M07 A3006 RMK A01 T01061069  RH  029%=      5-min Rain = 0
KHO1 240410Z 21006KT 11/M07 A3005 RMK A01 T01061070  RH  028%=      5-min Rain = 0
KHO1 240411Z 21006KT 11/M07 A3006 RMK A01 T01071070  RH  028%=      5-min Rain = 0
KHO1 240412Z 21006KT 11/M07 A3005 RMK A01 T01081073  RH  027%=      5-min Rain = 0
KHO1 240413Z 21006KT 11/M07 A3005 RMK A01 T01091072  RH  027%=      5-min Rain = 0
KHO1 240414Z 22005KT 11/M07 A3005 RMK A01 T01081072  RH  028%=      5-min Rain = 0
KHO1 240415Z 22005KT 11/M07 A3005 RMK A01 T01081071  RH  028%=      5-min Rain = 0
KHO1 240416Z 22005KT 11/M07 A3005 RMK A01 T01081073  RH  027%=      5-min Rain = 0
KHO1 240417Z 22006KT 11/M07 A3005 RMK A01 T01091074  RH  027%=      5-min Rain = 0
KHO1 240418Z 23006KT 11/M08 A3005 RMK A01 T01111076  RH  026%=      5-min Rain = 0
KHO1 240419Z 23006KT 11/M08 A3005 RMK A01 T01131078  RH  025%=      5-min Rain = 0
KHO1 240420Z 23006KT 12/M08 A3006 RMK A01 T01151078  RH  025%=      5-min Rain = 0
KHO1 240421Z 23006KT 12/M08 A3005 RMK A01 T01151078  RH  025%=      5-min Rain = 0
KHO1 240422Z 23006KT 12/M08 A3005 RMK A01 T01161079  RH  025%=      5-min Rain = 0
KHO1 240423Z 23006KT 12/M08 A3005 RMK A01 T01171080  RH  024%=      5-min Rain = 0
KHO1 240424Z 22006KT 12/M08 A3005 RMK A01 T01181080  RH  024%=      5-min Rain = 0
KHO1 240425Z 22006KT 12/M08 A3006 RMK A01 T01191080  RH  024%=      5-min Rain = 0
KHO1 240426Z 23006KT 12/M08 A3006 RMK A01 T01181079  RH  024%=      5-min Rain = 0
KHO1 240427Z 22006KT 12/M08 A3006 RMK A01 T01171079  RH  024%=      5-min Rain = 0
KHO1 240428Z 22006KT 12/M08 A3006 RMK A01 T01171078  RH  025%=      5-min Rain = 0
KHO1 240429Z 22006KT 12/M08 A3006 RMK A01 T01151077  RH  025%=      5-min Rain = 0
KHO1 240430Z 22005KT 11/M08 A3006 RMK A01 T01141078  RH  025%=      5-min Rain = 0
KHO1 240431Z 22005KT 11/M08 A3006 RMK A01 T01131077  RH  026%=      5-min Rain = 0
KHO1 240432Z 22005KT 11/M08 A3006 RMK A01 T01121077  RH  026%=      5-min Rain = 0
KHO1 240433Z 22005KT 11/M08 A3006 RMK A01 T01121077  RH  026%=      5-min Rain = 0
KHO1 240434Z 22005KT 11/M08 A3006 RMK A01 T01111076  RH  026%=      5-min Rain = 0
KHO1 240435Z 22005KT 11/M08 A3006 RMK A01 T01111076  RH  026%=      5-min Rain = 0
KHO1 240436Z 22005KT 11/M08 A3006 RMK A01 T01111076  RH  026%=      5-min Rain = 0
KHO1 240437Z 22005KT 11/M08 A3006 RMK A01 T01111076  RH  026%=      5-min Rain = 0
KHO1 240438Z 22005KT 11/M08 A3006 RMK A01 T01111076  RH  026%=      5-min Rain = 0
KHO1 240439Z 22006KT 11/M08 A3006 RMK A01 T01111075  RH  026%=      5-min Rain = 0
KHO1 240440Z 22006KT 11/M08 A3006 RMK A01 T01111077  RH  026%=      5-min Rain = 0
KHO1 240441Z 22005KT 11/M08 A3006 RMK A01 T01121077  RH  026%=      5-min Rain = 0
KHO1 240442Z 22006KT 11/M08 A3006 RMK A01 T01131078  RH  026%=      5-min Rain = 0
KHO1 240443Z 22006KT 11/M08 A3006 RMK A01 T01141079  RH  025%=      5-min Rain = 0
KHO1 240444Z 22006KT 12/M08 A3006 RMK A01 T01151081  RH  025%=      5-min Rain = 0
KHO1 240445Z 22005KT 12/M08 A3006 RMK A01 T01171082  RH  024%=      5-min Rain = 0
KHO1 240446Z 22006KT 12/M08 A3006 RMK A01 T01191082  RH  024%=      5-min Rain = 0
KHO1 240447Z 22005KT 12/M08 A3006 RMK A01 T01201083  RH  023%=      5-min Rain = 0
KHO1 240448Z 22005KT 12/M08 A3006 RMK A01 T01211084  RH  023%=      5-min Rain = 0
KHO1 240449Z 22005KT 12/M08 A3006 RMK A01 T01211084  RH  023%=      5-min Rain = 0
KHO1 240450Z 22005KT 12/M08 A3006 RMK A01 T01211084  RH  023%=      5-min Rain = 0
KHO1 240451Z 22005KT 12/M09 A3006 RMK A01 T01211085  RH  023%=      5-min Rain = 0
KHO1 240452Z 22005KT 12/M08 A3006 RMK A01 T01201083  RH  023%=      5-min Rain = 0
KHO1 240453Z 23005KT 12/M08 A3006 RMK A01 T01201084  RH  023%=      5-min Rain = 0
KHO1 240454Z 22005KT 12/M08 A3006 RMK A01 T01191084  RH  023%=      5-min Rain = 0
KHO1 240455Z 22006KT 12/M08 A3006 RMK A01 T01191084  RH  023%=      5-min Rain = 0
KHO1 240456Z 22006KT 12/M08 A3006 RMK A01 T01191084  RH  023%=      5-min Rain = 0
KHO1 240457Z 22006KT 12/M08 A3006 RMK A01 T01191084  RH  023%=      5-min Rain = 0
KHO1 240458Z 22007KT 12/M08 A3006 RMK A01 T01191083  RH  023%=      5-min Rain = 0
KHO1 240459Z 22007KT 12/M08 A3006 RMK A01 T01181082  RH  024%=      5-min Rain = 0

Page generated in 0.16 seconds.